<?xml version="1.0" encoding="UTF-8" standalone="no" ?>
<gpx xmlns="http://www.topografix.com/GPX/1/1" xmlns:xsi="http://www.w3.org/2001/XMLSchema-instance" xsi:schemaLocation="http://www.topografix.com/GPX/1/1 http://www.topografix.com/GPX/1/1/gpx.xsd" version="1.1" creator="VisuGPX - https://www.visugpx.com">
  <metadata>
    <name>Saint Orens-Ortiac-Le Malin</name>
    <desc><![CDATA[Autour de Villelongue (65)]]></desc>
  </metadata>
  <trk>
    <name><![CDATA[ST ORENS ORTIAC LE MALIN]]></name>
    <trkseg>
      <trkpt lat="42.95866" lon="-0.06354">
        <ele>477.43</ele>
        <time>2013-08-29T07:48:06Z</time>
      </trkpt>
      <trkpt lat="42.95872" lon="-0.06356">
        <ele>479.84</ele>
        <time>2013-08-29T07:48:22Z</time>
      </trkpt>
      <trkpt lat="42.95872" lon="-0.06354">
        <ele>479.84</ele>
        <time>2013-08-29T07:48:28Z</time>
      </trkpt>
      <trkpt lat="42.95871" lon="-0.06352">
        <ele>479.84</ele>
        <time>2013-08-29T07:48:29Z</time>
      </trkpt>
      <trkpt lat="42.95875" lon="-0.06349">
        <ele>479.35</ele>
        <time>2013-08-29T07:48:42Z</time>
      </trkpt>
      <trkpt lat="42.95877" lon="-0.06347">
        <ele>479.35</ele>
        <time>2013-08-29T07:48:58Z</time>
      </trkpt>
      <trkpt lat="42.95877" lon="-0.06342">
        <ele>478.87</ele>
        <time>2013-08-29T07:49:11Z</time>
      </trkpt>
      <trkpt lat="42.9588" lon="-0.06343">
        <ele>478.39</ele>
        <time>2013-08-29T07:49:22Z</time>
      </trkpt>
      <trkpt lat="42.95875" lon="-0.06343">
        <ele>478.87</ele>
        <time>2013-08-29T07:49:47Z</time>
      </trkpt>
      <trkpt lat="42.95879" lon="-0.06343">
        <ele>478.39</ele>
        <time>2013-08-29T07:49:59Z</time>
      </trkpt>
      <trkpt lat="42.95879" lon="-0.06342">
        <ele>478.87</ele>
        <time>2013-08-29T07:50:15Z</time>
      </trkpt>
      <trkpt lat="42.95879" lon="-0.06343">
        <ele>478.87</ele>
        <time>2013-08-29T07:50:28Z</time>
      </trkpt>
      <trkpt lat="42.9588" lon="-0.06344">
        <ele>478.87</ele>
        <time>2013-08-29T07:50:30Z</time>
      </trkpt>
      <trkpt lat="42.95882" lon="-0.06351">
        <ele>478.87</ele>
        <time>2013-08-29T07:50:32Z</time>
      </trkpt>
      <trkpt lat="42.9588" lon="-0.06355">
        <ele>478.87</ele>
        <time>2013-08-29T07:50:34Z</time>
      </trkpt>
      <trkpt lat="42.95857" lon="-0.06368">
        <ele>478.87</ele>
        <time>2013-08-29T07:50:45Z</time>
      </trkpt>
      <trkpt lat="42.95828" lon="-0.06385">
        <ele>478.87</ele>
        <time>2013-08-29T07:50:56Z</time>
      </trkpt>
      <trkpt lat="42.95802" lon="-0.06412">
        <ele>479.84</ele>
        <time>2013-08-29T07:51:08Z</time>
      </trkpt>
      <trkpt lat="42.958" lon="-0.06415">
        <ele>479.84</ele>
        <time>2013-08-29T07:51:10Z</time>
      </trkpt>
      <trkpt lat="42.95786" lon="-0.06429">
        <ele>480.32</ele>
        <time>2013-08-29T07:51:20Z</time>
      </trkpt>
      <trkpt lat="42.95774" lon="-0.06433">
        <ele>480.8</ele>
        <time>2013-08-29T07:51:26Z</time>
      </trkpt>
      <trkpt lat="42.95773" lon="-0.06434">
        <ele>480.32</ele>
        <time>2013-08-29T07:51:27Z</time>
      </trkpt>
      <trkpt lat="42.95757" lon="-0.06436">
        <ele>480.8</ele>
        <time>2013-08-29T07:51:34Z</time>
      </trkpt>
      <trkpt lat="42.9575" lon="-0.06434">
        <ele>481.76</ele>
        <time>2013-08-29T07:51:37Z</time>
      </trkpt>
      <trkpt lat="42.95743" lon="-0.06439">
        <ele>482.24</ele>
        <time>2013-08-29T07:51:40Z</time>
      </trkpt>
      <trkpt lat="42.95711" lon="-0.06434">
        <ele>482.72</ele>
        <time>2013-08-29T07:51:52Z</time>
      </trkpt>
      <trkpt lat="42.95673" lon="-0.06437">
        <ele>485.12</ele>
        <time>2013-08-29T07:52:05Z</time>
      </trkpt>
      <trkpt lat="42.95644" lon="-0.0643">
        <ele>486.56</ele>
        <time>2013-08-29T07:52:18Z</time>
      </trkpt>
      <trkpt lat="42.95618" lon="-0.06413">
        <ele>489.45</ele>
        <time>2013-08-29T07:52:30Z</time>
      </trkpt>
      <trkpt lat="42.95617" lon="-0.06411">
        <ele>489.45</ele>
        <time>2013-08-29T07:52:32Z</time>
      </trkpt>
      <trkpt lat="42.95616" lon="-0.0641">
        <ele>489.45</ele>
        <time>2013-08-29T07:52:33Z</time>
      </trkpt>
      <trkpt lat="42.95594" lon="-0.06397">
        <ele>491.37</ele>
        <time>2013-08-29T07:52:44Z</time>
      </trkpt>
      <trkpt lat="42.9557" lon="-0.06379">
        <ele>493.77</ele>
        <time>2013-08-29T07:52:57Z</time>
      </trkpt>
      <trkpt lat="42.95537" lon="-0.06366">
        <ele>496.66</ele>
        <time>2013-08-29T07:53:14Z</time>
      </trkpt>
      <trkpt lat="42.95518" lon="-0.06361">
        <ele>498.1</ele>
        <time>2013-08-29T07:53:24Z</time>
      </trkpt>
      <trkpt lat="42.95501" lon="-0.06339">
        <ele>500.98</ele>
        <time>2013-08-29T07:53:37Z</time>
      </trkpt>
      <trkpt lat="42.95489" lon="-0.06314">
        <ele>504.35</ele>
        <time>2013-08-29T07:53:49Z</time>
      </trkpt>
      <trkpt lat="42.95488" lon="-0.0631">
        <ele>504.35</ele>
        <time>2013-08-29T07:53:51Z</time>
      </trkpt>
      <trkpt lat="42.9549" lon="-0.06302">
        <ele>504.35</ele>
        <time>2013-08-29T07:53:55Z</time>
      </trkpt>
      <trkpt lat="42.9549" lon="-0.06295">
        <ele>504.83</ele>
        <time>2013-08-29T07:53:59Z</time>
      </trkpt>
      <trkpt lat="42.95497" lon="-0.06287">
        <ele>504.83</ele>
        <time>2013-08-29T07:54:06Z</time>
      </trkpt>
      <trkpt lat="42.95519" lon="-0.06258">
        <ele>504.83</ele>
        <time>2013-08-29T07:54:18Z</time>
      </trkpt>
      <trkpt lat="42.95549" lon="-0.06222">
        <ele>504.83</ele>
        <time>2013-08-29T07:54:32Z</time>
      </trkpt>
      <trkpt lat="42.95583" lon="-0.06192">
        <ele>504.83</ele>
        <time>2013-08-29T07:54:45Z</time>
      </trkpt>
      <trkpt lat="42.95598" lon="-0.06155">
        <ele>505.79</ele>
        <time>2013-08-29T07:54:56Z</time>
      </trkpt>
      <trkpt lat="42.95606" lon="-0.06094">
        <ele>508.19</ele>
        <time>2013-08-29T07:55:12Z</time>
      </trkpt>
      <trkpt lat="42.95611" lon="-0.06059">
        <ele>511.56</ele>
        <time>2013-08-29T07:55:24Z</time>
      </trkpt>
      <trkpt lat="42.95616" lon="-0.06026">
        <ele>511.56</ele>
        <time>2013-08-29T07:55:34Z</time>
      </trkpt>
      <trkpt lat="42.95608" lon="-0.06009">
        <ele>512.52</ele>
        <time>2013-08-29T07:55:40Z</time>
      </trkpt>
      <trkpt lat="42.95603" lon="-0.05977">
        <ele>513.96</ele>
        <time>2013-08-29T07:55:51Z</time>
      </trkpt>
      <trkpt lat="42.95621" lon="-0.0594">
        <ele>513.48</ele>
        <time>2013-08-29T07:56:02Z</time>
      </trkpt>
      <trkpt lat="42.95611" lon="-0.05905">
        <ele>514.92</ele>
        <time>2013-08-29T07:56:12Z</time>
      </trkpt>
      <trkpt lat="42.95594" lon="-0.05872">
        <ele>517.81</ele>
        <time>2013-08-29T07:56:23Z</time>
      </trkpt>
      <trkpt lat="42.95575" lon="-0.05851">
        <ele>519.73</ele>
        <time>2013-08-29T07:56:32Z</time>
      </trkpt>
      <trkpt lat="42.95556" lon="-0.05828">
        <ele>521.17</ele>
        <time>2013-08-29T07:56:43Z</time>
      </trkpt>
      <trkpt lat="42.95532" lon="-0.05822">
        <ele>523.09</ele>
        <time>2013-08-29T07:56:56Z</time>
      </trkpt>
      <trkpt lat="42.95527" lon="-0.05819">
        <ele>524.06</ele>
        <time>2013-08-29T07:56:59Z</time>
      </trkpt>
      <trkpt lat="42.95518" lon="-0.05788">
        <ele>526.94</ele>
        <time>2013-08-29T07:57:11Z</time>
      </trkpt>
      <trkpt lat="42.95517" lon="-0.05786">
        <ele>526.94</ele>
        <time>2013-08-29T07:57:12Z</time>
      </trkpt>
      <trkpt lat="42.95496" lon="-0.05777">
        <ele>529.34</ele>
        <time>2013-08-29T07:57:24Z</time>
      </trkpt>
      <trkpt lat="42.95477" lon="-0.05772">
        <ele>531.75</ele>
        <time>2013-08-29T07:57:36Z</time>
      </trkpt>
      <trkpt lat="42.95453" lon="-0.05758">
        <ele>535.11</ele>
        <time>2013-08-29T07:57:50Z</time>
      </trkpt>
      <trkpt lat="42.95431" lon="-0.05746">
        <ele>537.99</ele>
        <time>2013-08-29T07:58:02Z</time>
      </trkpt>
      <trkpt lat="42.95413" lon="-0.05725">
        <ele>540.4</ele>
        <time>2013-08-29T07:58:15Z</time>
      </trkpt>
      <trkpt lat="42.9541" lon="-0.05722">
        <ele>540.88</ele>
        <time>2013-08-29T07:58:18Z</time>
      </trkpt>
      <trkpt lat="42.95402" lon="-0.05722">
        <ele>542.8</ele>
        <time>2013-08-29T07:58:24Z</time>
      </trkpt>
      <trkpt lat="42.95377" lon="-0.05707">
        <ele>546.17</ele>
        <time>2013-08-29T07:58:38Z</time>
      </trkpt>
      <trkpt lat="42.95361" lon="-0.05688">
        <ele>549.05</ele>
        <time>2013-08-29T07:58:52Z</time>
      </trkpt>
      <trkpt lat="42.95344" lon="-0.05665">
        <ele>552.41</ele>
        <time>2013-08-29T07:59:06Z</time>
      </trkpt>
      <trkpt lat="42.95325" lon="-0.05645">
        <ele>555.3</ele>
        <time>2013-08-29T07:59:18Z</time>
      </trkpt>
      <trkpt lat="42.95299" lon="-0.05639">
        <ele>558.18</ele>
        <time>2013-08-29T07:59:33Z</time>
      </trkpt>
      <trkpt lat="42.95272" lon="-0.05635">
        <ele>560.11</ele>
        <time>2013-08-29T07:59:44Z</time>
      </trkpt>
      <trkpt lat="42.95244" lon="-0.05628">
        <ele>562.51</ele>
        <time>2013-08-29T07:59:54Z</time>
      </trkpt>
      <trkpt lat="42.95226" lon="-0.0561">
        <ele>565.39</ele>
        <time>2013-08-29T08:00:07Z</time>
      </trkpt>
      <trkpt lat="42.95206" lon="-0.05596">
        <ele>567.32</ele>
        <time>2013-08-29T08:00:18Z</time>
      </trkpt>
      <trkpt lat="42.95198" lon="-0.05592">
        <ele>568.28</ele>
        <time>2013-08-29T08:00:21Z</time>
      </trkpt>
      <trkpt lat="42.95198" lon="-0.0559">
        <ele>568.28</ele>
        <time>2013-08-29T08:00:22Z</time>
      </trkpt>
      <trkpt lat="42.95198" lon="-0.05586">
        <ele>568.76</ele>
        <time>2013-08-29T08:00:23Z</time>
      </trkpt>
      <trkpt lat="42.95185" lon="-0.05572">
        <ele>571.16</ele>
        <time>2013-08-29T08:00:35Z</time>
      </trkpt>
      <trkpt lat="42.95172" lon="-0.05552">
        <ele>573.56</ele>
        <time>2013-08-29T08:00:48Z</time>
      </trkpt>
      <trkpt lat="42.95158" lon="-0.05533">
        <ele>576.93</ele>
        <time>2013-08-29T08:01:01Z</time>
      </trkpt>
      <trkpt lat="42.95157" lon="-0.05531">
        <ele>576.45</ele>
        <time>2013-08-29T08:01:03Z</time>
      </trkpt>
      <trkpt lat="42.95147" lon="-0.0551">
        <ele>579.33</ele>
        <time>2013-08-29T08:01:14Z</time>
      </trkpt>
      <trkpt lat="42.95143" lon="-0.05505">
        <ele>579.81</ele>
        <time>2013-08-29T08:01:18Z</time>
      </trkpt>
      <trkpt lat="42.95142" lon="-0.055">
        <ele>580.77</ele>
        <time>2013-08-29T08:01:22Z</time>
      </trkpt>
      <trkpt lat="42.95142" lon="-0.05495">
        <ele>581.25</ele>
        <time>2013-08-29T08:01:25Z</time>
      </trkpt>
      <trkpt lat="42.95129" lon="-0.05482">
        <ele>583.18</ele>
        <time>2013-08-29T08:01:34Z</time>
      </trkpt>
      <trkpt lat="42.95119" lon="-0.05464">
        <ele>585.58</ele>
        <time>2013-08-29T08:01:43Z</time>
      </trkpt>
      <trkpt lat="42.95117" lon="-0.05463">
        <ele>585.58</ele>
        <time>2013-08-29T08:01:44Z</time>
      </trkpt>
      <trkpt lat="42.95105" lon="-0.05443">
        <ele>587.98</ele>
        <time>2013-08-29T08:01:55Z</time>
      </trkpt>
      <trkpt lat="42.95102" lon="-0.05428">
        <ele>590.39</ele>
        <time>2013-08-29T08:02:05Z</time>
      </trkpt>
      <trkpt lat="42.95096" lon="-0.05416">
        <ele>591.83</ele>
        <time>2013-08-29T08:02:11Z</time>
      </trkpt>
      <trkpt lat="42.95083" lon="-0.05396">
        <ele>594.71</ele>
        <time>2013-08-29T08:02:22Z</time>
      </trkpt>
      <trkpt lat="42.95082" lon="-0.05392">
        <ele>594.71</ele>
        <time>2013-08-29T08:02:24Z</time>
      </trkpt>
      <trkpt lat="42.95099" lon="-0.05375">
        <ele>597.6</ele>
        <time>2013-08-29T08:02:37Z</time>
      </trkpt>
      <trkpt lat="42.95105" lon="-0.05377">
        <ele>598.08</ele>
        <time>2013-08-29T08:02:41Z</time>
      </trkpt>
      <trkpt lat="42.95129" lon="-0.05375">
        <ele>601.44</ele>
        <time>2013-08-29T08:02:53Z</time>
      </trkpt>
      <trkpt lat="42.95158" lon="-0.05377">
        <ele>604.33</ele>
        <time>2013-08-29T08:03:05Z</time>
      </trkpt>
      <trkpt lat="42.9518" lon="-0.0539">
        <ele>606.73</ele>
        <time>2013-08-29T08:03:18Z</time>
      </trkpt>
      <trkpt lat="42.95202" lon="-0.0541">
        <ele>609.61</ele>
        <time>2013-08-29T08:03:32Z</time>
      </trkpt>
      <trkpt lat="42.95225" lon="-0.05439">
        <ele>612.02</ele>
        <time>2013-08-29T08:03:50Z</time>
      </trkpt>
      <trkpt lat="42.95251" lon="-0.05457">
        <ele>613.46</ele>
        <time>2013-08-29T08:04:05Z</time>
      </trkpt>
      <trkpt lat="42.95257" lon="-0.05457">
        <ele>613.46</ele>
        <time>2013-08-29T08:04:10Z</time>
      </trkpt>
      <trkpt lat="42.95278" lon="-0.05447">
        <ele>613.94</ele>
        <time>2013-08-29T08:04:21Z</time>
      </trkpt>
      <trkpt lat="42.95303" lon="-0.05433">
        <ele>613.46</ele>
        <time>2013-08-29T08:04:32Z</time>
      </trkpt>
      <trkpt lat="42.95337" lon="-0.05411">
        <ele>613.94</ele>
        <time>2013-08-29T08:04:47Z</time>
      </trkpt>
      <trkpt lat="42.95349" lon="-0.05381">
        <ele>615.86</ele>
        <time>2013-08-29T08:04:57Z</time>
      </trkpt>
      <trkpt lat="42.95348" lon="-0.05378">
        <ele>615.86</ele>
        <time>2013-08-29T08:04:58Z</time>
      </trkpt>
      <trkpt lat="42.95355" lon="-0.05355">
        <ele>617.3</ele>
        <time>2013-08-29T08:05:07Z</time>
      </trkpt>
      <trkpt lat="42.95363" lon="-0.05328">
        <ele>618.75</ele>
        <time>2013-08-29T08:05:17Z</time>
      </trkpt>
      <trkpt lat="42.95369" lon="-0.05318">
        <ele>618.75</ele>
        <time>2013-08-29T08:05:21Z</time>
      </trkpt>
      <trkpt lat="42.95377" lon="-0.05311">
        <ele>619.23</ele>
        <time>2013-08-29T08:05:25Z</time>
      </trkpt>
      <trkpt lat="42.9538" lon="-0.05281">
        <ele>620.19</ele>
        <time>2013-08-29T08:05:34Z</time>
      </trkpt>
      <trkpt lat="42.95383" lon="-0.05245">
        <ele>621.63</ele>
        <time>2013-08-29T08:05:45Z</time>
      </trkpt>
      <trkpt lat="42.95379" lon="-0.05215">
        <ele>623.07</ele>
        <time>2013-08-29T08:05:54Z</time>
      </trkpt>
      <trkpt lat="42.95372" lon="-0.05185">
        <ele>625.96</ele>
        <time>2013-08-29T08:06:05Z</time>
      </trkpt>
      <trkpt lat="42.95362" lon="-0.05159">
        <ele>627.88</ele>
        <time>2013-08-29T08:06:16Z</time>
      </trkpt>
      <trkpt lat="42.95361" lon="-0.05158">
        <ele>627.88</ele>
        <time>2013-08-29T08:06:17Z</time>
      </trkpt>
      <trkpt lat="42.95361" lon="-0.0515">
        <ele>628.84</ele>
        <time>2013-08-29T08:06:20Z</time>
      </trkpt>
      <trkpt lat="42.95355" lon="-0.05138">
        <ele>629.8</ele>
        <time>2013-08-29T08:06:26Z</time>
      </trkpt>
      <trkpt lat="42.95336" lon="-0.05099">
        <ele>632.2</ele>
        <time>2013-08-29T08:06:39Z</time>
      </trkpt>
      <trkpt lat="42.95335" lon="-0.05097">
        <ele>632.2</ele>
        <time>2013-08-29T08:06:40Z</time>
      </trkpt>
      <trkpt lat="42.95334" lon="-0.0509">
        <ele>632.68</ele>
        <time>2013-08-29T08:06:43Z</time>
      </trkpt>
      <trkpt lat="42.95335" lon="-0.0508">
        <ele>633.17</ele>
        <time>2013-08-29T08:06:46Z</time>
      </trkpt>
      <trkpt lat="42.95326" lon="-0.05072">
        <ele>635.09</ele>
        <time>2013-08-29T08:06:51Z</time>
      </trkpt>
      <trkpt lat="42.95316" lon="-0.05088">
        <ele>637.49</ele>
        <time>2013-08-29T08:07:00Z</time>
      </trkpt>
      <trkpt lat="42.95317" lon="-0.05093">
        <ele>637.97</ele>
        <time>2013-08-29T08:07:03Z</time>
      </trkpt>
      <trkpt lat="42.95313" lon="-0.05114">
        <ele>639.89</ele>
        <time>2013-08-29T08:07:11Z</time>
      </trkpt>
      <trkpt lat="42.95314" lon="-0.05122">
        <ele>640.38</ele>
        <time>2013-08-29T08:07:14Z</time>
      </trkpt>
      <trkpt lat="42.95315" lon="-0.05154">
        <ele>642.78</ele>
        <time>2013-08-29T08:07:25Z</time>
      </trkpt>
      <trkpt lat="42.95312" lon="-0.05183">
        <ele>645.18</ele>
        <time>2013-08-29T08:07:36Z</time>
      </trkpt>
      <trkpt lat="42.95296" lon="-0.05203">
        <ele>647.1</ele>
        <time>2013-08-29T08:07:46Z</time>
      </trkpt>
      <trkpt lat="42.9528" lon="-0.05214">
        <ele>649.51</ele>
        <time>2013-08-29T08:07:56Z</time>
      </trkpt>
      <trkpt lat="42.95257" lon="-0.05228">
        <ele>652.39</ele>
        <time>2013-08-29T08:08:08Z</time>
      </trkpt>
      <trkpt lat="42.95234" lon="-0.0523">
        <ele>655.28</ele>
        <time>2013-08-29T08:08:19Z</time>
      </trkpt>
      <trkpt lat="42.95226" lon="-0.05227">
        <ele>656.24</ele>
        <time>2013-08-29T08:08:24Z</time>
      </trkpt>
      <trkpt lat="42.95212" lon="-0.05196">
        <ele>658.16</ele>
        <time>2013-08-29T08:08:39Z</time>
      </trkpt>
      <trkpt lat="42.95194" lon="-0.05155">
        <ele>661.52</ele>
        <time>2013-08-29T08:08:57Z</time>
      </trkpt>
      <trkpt lat="42.95182" lon="-0.05122">
        <ele>663.45</ele>
        <time>2013-08-29T08:09:11Z</time>
      </trkpt>
      <trkpt lat="42.95169" lon="-0.05099">
        <ele>666.33</ele>
        <time>2013-08-29T08:09:23Z</time>
      </trkpt>
      <trkpt lat="42.95148" lon="-0.05094">
        <ele>668.73</ele>
        <time>2013-08-29T08:09:34Z</time>
      </trkpt>
      <trkpt lat="42.95152" lon="-0.05076">
        <ele>670.66</ele>
        <time>2013-08-29T08:09:43Z</time>
      </trkpt>
      <trkpt lat="42.95177" lon="-0.05074">
        <ele>672.58</ele>
        <time>2013-08-29T08:09:56Z</time>
      </trkpt>
      <trkpt lat="42.952" lon="-0.05069">
        <ele>675.46</ele>
        <time>2013-08-29T08:10:09Z</time>
      </trkpt>
      <trkpt lat="42.9523" lon="-0.05057">
        <ele>678.83</ele>
        <time>2013-08-29T08:10:23Z</time>
      </trkpt>
      <trkpt lat="42.95256" lon="-0.05034">
        <ele>681.71</ele>
        <time>2013-08-29T08:10:38Z</time>
      </trkpt>
      <trkpt lat="42.95272" lon="-0.0501">
        <ele>684.12</ele>
        <time>2013-08-29T08:10:51Z</time>
      </trkpt>
      <trkpt lat="42.95272" lon="-0.05007">
        <ele>684.6</ele>
        <time>2013-08-29T08:10:52Z</time>
      </trkpt>
      <trkpt lat="42.95253" lon="-0.05015">
        <ele>687</ele>
        <time>2013-08-29T08:11:03Z</time>
      </trkpt>
      <trkpt lat="42.95224" lon="-0.0502">
        <ele>687.96</ele>
        <time>2013-08-29T08:11:16Z</time>
      </trkpt>
      <trkpt lat="42.952" lon="-0.05012">
        <ele>691.33</ele>
        <time>2013-08-29T08:11:29Z</time>
      </trkpt>
      <trkpt lat="42.95165" lon="-0.05018">
        <ele>693.73</ele>
        <time>2013-08-29T08:11:45Z</time>
      </trkpt>
      <trkpt lat="42.95138" lon="-0.05026">
        <ele>697.09</ele>
        <time>2013-08-29T08:11:58Z</time>
      </trkpt>
      <trkpt lat="42.95142" lon="-0.05002">
        <ele>699.5</ele>
        <time>2013-08-29T08:12:09Z</time>
      </trkpt>
      <trkpt lat="42.95163" lon="-0.04978">
        <ele>702.38</ele>
        <time>2013-08-29T08:12:24Z</time>
      </trkpt>
      <trkpt lat="42.9519" lon="-0.04951">
        <ele>704.78</ele>
        <time>2013-08-29T08:12:41Z</time>
      </trkpt>
      <trkpt lat="42.95229" lon="-0.0492">
        <ele>708.15</ele>
        <time>2013-08-29T08:13:00Z</time>
      </trkpt>
      <trkpt lat="42.95243" lon="-0.04885">
        <ele>710.55</ele>
        <time>2013-08-29T08:13:15Z</time>
      </trkpt>
      <trkpt lat="42.95234" lon="-0.04862">
        <ele>713.92</ele>
        <time>2013-08-29T08:13:27Z</time>
      </trkpt>
      <trkpt lat="42.95214" lon="-0.04831">
        <ele>716.8</ele>
        <time>2013-08-29T08:13:42Z</time>
      </trkpt>
      <trkpt lat="42.95201" lon="-0.04799">
        <ele>719.68</ele>
        <time>2013-08-29T08:13:56Z</time>
      </trkpt>
      <trkpt lat="42.95201" lon="-0.04762">
        <ele>723.05</ele>
        <time>2013-08-29T08:14:11Z</time>
      </trkpt>
      <trkpt lat="42.95205" lon="-0.04715">
        <ele>725.45</ele>
        <time>2013-08-29T08:14:29Z</time>
      </trkpt>
      <trkpt lat="42.95205" lon="-0.04659">
        <ele>724.49</ele>
        <time>2013-08-29T08:14:44Z</time>
      </trkpt>
      <trkpt lat="42.95191" lon="-0.04616">
        <ele>725.93</ele>
        <time>2013-08-29T08:14:58Z</time>
      </trkpt>
      <trkpt lat="42.95177" lon="-0.04579">
        <ele>727.86</ele>
        <time>2013-08-29T08:15:13Z</time>
      </trkpt>
      <trkpt lat="42.95155" lon="-0.0457">
        <ele>729.3</ele>
        <time>2013-08-29T08:15:25Z</time>
      </trkpt>
      <trkpt lat="42.95117" lon="-0.0458">
        <ele>732.66</ele>
        <time>2013-08-29T08:15:43Z</time>
      </trkpt>
      <trkpt lat="42.95093" lon="-0.04592">
        <ele>735.07</ele>
        <time>2013-08-29T08:15:56Z</time>
      </trkpt>
      <trkpt lat="42.95092" lon="-0.04592">
        <ele>735.55</ele>
        <time>2013-08-29T08:15:57Z</time>
      </trkpt>
      <trkpt lat="42.95091" lon="-0.04591">
        <ele>735.55</ele>
        <time>2013-08-29T08:15:58Z</time>
      </trkpt>
      <trkpt lat="42.95091" lon="-0.0459">
        <ele>735.55</ele>
        <time>2013-08-29T08:15:59Z</time>
      </trkpt>
      <trkpt lat="42.9509" lon="-0.0458">
        <ele>736.03</ele>
        <time>2013-08-29T08:16:05Z</time>
      </trkpt>
      <trkpt lat="42.9509" lon="-0.04577">
        <ele>736.03</ele>
        <time>2013-08-29T08:16:07Z</time>
      </trkpt>
      <trkpt lat="42.95081" lon="-0.04561">
        <ele>736.03</ele>
        <time>2013-08-29T08:16:17Z</time>
      </trkpt>
      <trkpt lat="42.95079" lon="-0.04537">
        <ele>737.47</ele>
        <time>2013-08-29T08:16:29Z</time>
      </trkpt>
      <trkpt lat="42.95079" lon="-0.04507">
        <ele>739.39</ele>
        <time>2013-08-29T08:16:44Z</time>
      </trkpt>
      <trkpt lat="42.95083" lon="-0.04475">
        <ele>740.83</ele>
        <time>2013-08-29T08:16:58Z</time>
      </trkpt>
      <trkpt lat="42.95089" lon="-0.04453">
        <ele>741.31</ele>
        <time>2013-08-29T08:17:09Z</time>
      </trkpt>
      <trkpt lat="42.95089" lon="-0.04452">
        <ele>741.31</ele>
        <time>2013-08-29T08:17:10Z</time>
      </trkpt>
      <trkpt lat="42.95092" lon="-0.04415">
        <ele>743.24</ele>
        <time>2013-08-29T08:17:26Z</time>
      </trkpt>
      <trkpt lat="42.95101" lon="-0.04385">
        <ele>746.12</ele>
        <time>2013-08-29T08:17:41Z</time>
      </trkpt>
      <trkpt lat="42.9511" lon="-0.04363">
        <ele>749</ele>
        <time>2013-08-29T08:17:53Z</time>
      </trkpt>
      <trkpt lat="42.95114" lon="-0.04344">
        <ele>752.37</ele>
        <time>2013-08-29T08:18:04Z</time>
      </trkpt>
      <trkpt lat="42.95116" lon="-0.04329">
        <ele>754.77</ele>
        <time>2013-08-29T08:18:14Z</time>
      </trkpt>
      <trkpt lat="42.95117" lon="-0.04328">
        <ele>755.25</ele>
        <time>2013-08-29T08:18:15Z</time>
      </trkpt>
      <trkpt lat="42.95136" lon="-0.04324">
        <ele>758.14</ele>
        <time>2013-08-29T08:18:29Z</time>
      </trkpt>
      <trkpt lat="42.95157" lon="-0.04313">
        <ele>760.06</ele>
        <time>2013-08-29T08:18:43Z</time>
      </trkpt>
      <trkpt lat="42.95171" lon="-0.04291">
        <ele>762.94</ele>
        <time>2013-08-29T08:18:57Z</time>
      </trkpt>
      <trkpt lat="42.95175" lon="-0.04276">
        <ele>764.87</ele>
        <time>2013-08-29T08:19:06Z</time>
      </trkpt>
      <trkpt lat="42.95175" lon="-0.04274">
        <ele>764.87</ele>
        <time>2013-08-29T08:19:07Z</time>
      </trkpt>
      <trkpt lat="42.95178" lon="-0.04241">
        <ele>767.27</ele>
        <time>2013-08-29T08:19:24Z</time>
      </trkpt>
      <trkpt lat="42.9518" lon="-0.04215">
        <ele>770.15</ele>
        <time>2013-08-29T08:19:36Z</time>
      </trkpt>
      <trkpt lat="42.95182" lon="-0.0418">
        <ele>772.08</ele>
        <time>2013-08-29T08:19:52Z</time>
      </trkpt>
      <trkpt lat="42.95178" lon="-0.04153">
        <ele>774.96</ele>
        <time>2013-08-29T08:20:05Z</time>
      </trkpt>
      <trkpt lat="42.95178" lon="-0.04132">
        <ele>777.84</ele>
        <time>2013-08-29T08:20:18Z</time>
      </trkpt>
      <trkpt lat="42.95176" lon="-0.04112">
        <ele>781.21</ele>
        <time>2013-08-29T08:20:30Z</time>
      </trkpt>
      <trkpt lat="42.95175" lon="-0.04111">
        <ele>781.69</ele>
        <time>2013-08-29T08:20:31Z</time>
      </trkpt>
      <trkpt lat="42.95174" lon="-0.04107">
        <ele>782.17</ele>
        <time>2013-08-29T08:20:34Z</time>
      </trkpt>
      <trkpt lat="42.95174" lon="-0.04102">
        <ele>782.65</ele>
        <time>2013-08-29T08:20:37Z</time>
      </trkpt>
      <trkpt lat="42.9517" lon="-0.04086">
        <ele>785.53</ele>
        <time>2013-08-29T08:20:48Z</time>
      </trkpt>
      <trkpt lat="42.9517" lon="-0.04077">
        <ele>787.46</ele>
        <time>2013-08-29T08:20:55Z</time>
      </trkpt>
      <trkpt lat="42.9517" lon="-0.04073">
        <ele>787.94</ele>
        <time>2013-08-29T08:20:58Z</time>
      </trkpt>
      <trkpt lat="42.95166" lon="-0.04051">
        <ele>791.3</ele>
        <time>2013-08-29T08:21:11Z</time>
      </trkpt>
      <trkpt lat="42.95162" lon="-0.04027">
        <ele>794.19</ele>
        <time>2013-08-29T08:21:25Z</time>
      </trkpt>
      <trkpt lat="42.9516" lon="-0.04005">
        <ele>796.11</ele>
        <time>2013-08-29T08:21:38Z</time>
      </trkpt>
      <trkpt lat="42.95157" lon="-0.03995">
        <ele>798.03</ele>
        <time>2013-08-29T08:21:45Z</time>
      </trkpt>
      <trkpt lat="42.95147" lon="-0.03969">
        <ele>800.44</ele>
        <time>2013-08-29T08:21:59Z</time>
      </trkpt>
      <trkpt lat="42.95143" lon="-0.03945">
        <ele>803.8</ele>
        <time>2013-08-29T08:22:12Z</time>
      </trkpt>
      <trkpt lat="42.95148" lon="-0.03928">
        <ele>806.68</ele>
        <time>2013-08-29T08:22:23Z</time>
      </trkpt>
      <trkpt lat="42.95149" lon="-0.03912">
        <ele>809.09</ele>
        <time>2013-08-29T08:22:33Z</time>
      </trkpt>
      <trkpt lat="42.95143" lon="-0.03901">
        <ele>811.49</ele>
        <time>2013-08-29T08:22:41Z</time>
      </trkpt>
      <trkpt lat="42.95143" lon="-0.0389">
        <ele>812.93</ele>
        <time>2013-08-29T08:22:48Z</time>
      </trkpt>
      <trkpt lat="42.95144" lon="-0.03885">
        <ele>813.41</ele>
        <time>2013-08-29T08:22:51Z</time>
      </trkpt>
      <trkpt lat="42.95155" lon="-0.03869">
        <ele>816.78</ele>
        <time>2013-08-29T08:23:04Z</time>
      </trkpt>
      <trkpt lat="42.95144" lon="-0.03843">
        <ele>819.66</ele>
        <time>2013-08-29T08:23:17Z</time>
      </trkpt>
      <trkpt lat="42.95135" lon="-0.03822">
        <ele>822.06</ele>
        <time>2013-08-29T08:23:27Z</time>
      </trkpt>
      <trkpt lat="42.9513" lon="-0.03814">
        <ele>822.55</ele>
        <time>2013-08-29T08:23:31Z</time>
      </trkpt>
      <trkpt lat="42.95128" lon="-0.03796">
        <ele>825.91</ele>
        <time>2013-08-29T08:23:43Z</time>
      </trkpt>
      <trkpt lat="42.95126" lon="-0.03776">
        <ele>828.31</ele>
        <time>2013-08-29T08:23:54Z</time>
      </trkpt>
      <trkpt lat="42.95117" lon="-0.03753">
        <ele>831.68</ele>
        <time>2013-08-29T08:24:06Z</time>
      </trkpt>
      <trkpt lat="42.9511" lon="-0.03735">
        <ele>834.08</ele>
        <time>2013-08-29T08:24:18Z</time>
      </trkpt>
      <trkpt lat="42.95109" lon="-0.03731">
        <ele>835.04</ele>
        <time>2013-08-29T08:24:22Z</time>
      </trkpt>
      <trkpt lat="42.95106" lon="-0.03718">
        <ele>836.96</ele>
        <time>2013-08-29T08:24:29Z</time>
      </trkpt>
      <trkpt lat="42.95107" lon="-0.03714">
        <ele>836.96</ele>
        <time>2013-08-29T08:24:32Z</time>
      </trkpt>
      <trkpt lat="42.95106" lon="-0.03709">
        <ele>837.45</ele>
        <time>2013-08-29T08:24:35Z</time>
      </trkpt>
      <trkpt lat="42.95106" lon="-0.03707">
        <ele>837.45</ele>
        <time>2013-08-29T08:24:36Z</time>
      </trkpt>
      <trkpt lat="42.95104" lon="-0.03702">
        <ele>838.89</ele>
        <time>2013-08-29T08:24:44Z</time>
      </trkpt>
      <trkpt lat="42.95104" lon="-0.03705">
        <ele>838.89</ele>
        <time>2013-08-29T08:24:45Z</time>
      </trkpt>
      <trkpt lat="42.95099" lon="-0.03714">
        <ele>839.85</ele>
        <time>2013-08-29T08:24:53Z</time>
      </trkpt>
      <trkpt lat="42.95098" lon="-0.03731">
        <ele>842.73</ele>
        <time>2013-08-29T08:25:05Z</time>
      </trkpt>
      <trkpt lat="42.95102" lon="-0.03751">
        <ele>846.1</ele>
        <time>2013-08-29T08:25:18Z</time>
      </trkpt>
      <trkpt lat="42.95102" lon="-0.03754">
        <ele>846.58</ele>
        <time>2013-08-29T08:25:20Z</time>
      </trkpt>
      <trkpt lat="42.95087" lon="-0.03774">
        <ele>849.46</ele>
        <time>2013-08-29T08:25:35Z</time>
      </trkpt>
      <trkpt lat="42.95079" lon="-0.0379">
        <ele>852.35</ele>
        <time>2013-08-29T08:25:46Z</time>
      </trkpt>
      <trkpt lat="42.95073" lon="-0.03809">
        <ele>855.23</ele>
        <time>2013-08-29T08:25:58Z</time>
      </trkpt>
      <trkpt lat="42.95072" lon="-0.03812">
        <ele>856.19</ele>
        <time>2013-08-29T08:26:02Z</time>
      </trkpt>
      <trkpt lat="42.9507" lon="-0.03818">
        <ele>857.15</ele>
        <time>2013-08-29T08:26:05Z</time>
      </trkpt>
      <trkpt lat="42.95066" lon="-0.03829">
        <ele>858.59</ele>
        <time>2013-08-29T08:26:14Z</time>
      </trkpt>
      <trkpt lat="42.95066" lon="-0.03832">
        <ele>859.56</ele>
        <time>2013-08-29T08:26:16Z</time>
      </trkpt>
      <trkpt lat="42.95064" lon="-0.0384">
        <ele>860.52</ele>
        <time>2013-08-29T08:26:21Z</time>
      </trkpt>
      <trkpt lat="42.95063" lon="-0.03857">
        <ele>863.4</ele>
        <time>2013-08-29T08:26:31Z</time>
      </trkpt>
      <trkpt lat="42.95058" lon="-0.03876">
        <ele>866.29</ele>
        <time>2013-08-29T08:26:44Z</time>
      </trkpt>
      <trkpt lat="42.95067" lon="-0.03898">
        <ele>868.69</ele>
        <time>2013-08-29T08:26:56Z</time>
      </trkpt>
      <trkpt lat="42.95053" lon="-0.03901">
        <ele>872.05</ele>
        <time>2013-08-29T08:27:09Z</time>
      </trkpt>
      <trkpt lat="42.95033" lon="-0.03899">
        <ele>874.94</ele>
        <time>2013-08-29T08:27:21Z</time>
      </trkpt>
      <trkpt lat="42.95018" lon="-0.03907">
        <ele>877.34</ele>
        <time>2013-08-29T08:27:36Z</time>
      </trkpt>
      <trkpt lat="42.95013" lon="-0.03906">
        <ele>878.3</ele>
        <time>2013-08-29T08:27:40Z</time>
      </trkpt>
      <trkpt lat="42.95007" lon="-0.03907">
        <ele>880.71</ele>
        <time>2013-08-29T08:27:50Z</time>
      </trkpt>
      <trkpt lat="42.95" lon="-0.03905">
        <ele>883.59</ele>
        <time>2013-08-29T08:27:59Z</time>
      </trkpt>
      <trkpt lat="42.94994" lon="-0.03903">
        <ele>885.03</ele>
        <time>2013-08-29T08:28:06Z</time>
      </trkpt>
      <trkpt lat="42.94987" lon="-0.03897">
        <ele>886.95</ele>
        <time>2013-08-29T08:28:17Z</time>
      </trkpt>
      <trkpt lat="42.94979" lon="-0.03892">
        <ele>889.84</ele>
        <time>2013-08-29T08:28:29Z</time>
      </trkpt>
      <trkpt lat="42.94966" lon="-0.03887">
        <ele>892.72</ele>
        <time>2013-08-29T08:28:40Z</time>
      </trkpt>
      <trkpt lat="42.9496" lon="-0.03886">
        <ele>893.68</ele>
        <time>2013-08-29T08:28:45Z</time>
      </trkpt>
      <trkpt lat="42.94956" lon="-0.03887">
        <ele>894.16</ele>
        <time>2013-08-29T08:28:47Z</time>
      </trkpt>
      <trkpt lat="42.94937" lon="-0.03881">
        <ele>897.05</ele>
        <time>2013-08-29T08:28:59Z</time>
      </trkpt>
      <trkpt lat="42.9493" lon="-0.03868">
        <ele>898.49</ele>
        <time>2013-08-29T08:29:05Z</time>
      </trkpt>
      <trkpt lat="42.94912" lon="-0.03853">
        <ele>900.41</ele>
        <time>2013-08-29T08:29:15Z</time>
      </trkpt>
      <trkpt lat="42.94909" lon="-0.0385">
        <ele>900.89</ele>
        <time>2013-08-29T08:29:17Z</time>
      </trkpt>
      <trkpt lat="42.94911" lon="-0.03834">
        <ele>902.33</ele>
        <time>2013-08-29T08:29:26Z</time>
      </trkpt>
      <trkpt lat="42.94927" lon="-0.03822">
        <ele>905.22</ele>
        <time>2013-08-29T08:29:40Z</time>
      </trkpt>
      <trkpt lat="42.94938" lon="-0.03817">
        <ele>907.62</ele>
        <time>2013-08-29T08:29:51Z</time>
      </trkpt>
      <trkpt lat="42.94848" lon="-0.03802">
        <ele>910.51</ele>
        <time>2013-08-29T08:30:03Z</time>
      </trkpt>
      <trkpt lat="42.94847" lon="-0.038">
        <ele>910.51</ele>
        <time>2013-08-29T08:30:05Z</time>
      </trkpt>
      <trkpt lat="42.9484" lon="-0.03798">
        <ele>911.47</ele>
        <time>2013-08-29T08:30:11Z</time>
      </trkpt>
      <trkpt lat="42.94817" lon="-0.03801">
        <ele>915.31</ele>
        <time>2013-08-29T08:30:26Z</time>
      </trkpt>
      <trkpt lat="42.94814" lon="-0.03801">
        <ele>915.31</ele>
        <time>2013-08-29T08:30:28Z</time>
      </trkpt>
      <trkpt lat="42.94801" lon="-0.03804">
        <ele>917.72</ele>
        <time>2013-08-29T08:30:39Z</time>
      </trkpt>
      <trkpt lat="42.94795" lon="-0.03806">
        <ele>918.68</ele>
        <time>2013-08-29T08:30:44Z</time>
      </trkpt>
      <trkpt lat="42.94789" lon="-0.03806">
        <ele>919.64</ele>
        <time>2013-08-29T08:30:48Z</time>
      </trkpt>
      <trkpt lat="42.94774" lon="-0.03792">
        <ele>923</ele>
        <time>2013-08-29T08:31:01Z</time>
      </trkpt>
      <trkpt lat="42.94764" lon="-0.03767">
        <ele>926.37</ele>
        <time>2013-08-29T08:31:16Z</time>
      </trkpt>
      <trkpt lat="42.94763" lon="-0.03761">
        <ele>926.85</ele>
        <time>2013-08-29T08:31:18Z</time>
      </trkpt>
      <trkpt lat="42.94762" lon="-0.03754">
        <ele>926.85</ele>
        <time>2013-08-29T08:31:21Z</time>
      </trkpt>
      <trkpt lat="42.9476" lon="-0.03753">
        <ele>928.29</ele>
        <time>2013-08-29T08:31:23Z</time>
      </trkpt>
      <trkpt lat="42.94759" lon="-0.03753">
        <ele>928.29</ele>
        <time>2013-08-29T08:31:24Z</time>
      </trkpt>
      <trkpt lat="42.94753" lon="-0.03746">
        <ele>929.73</ele>
        <time>2013-08-29T08:31:31Z</time>
      </trkpt>
      <trkpt lat="42.94749" lon="-0.03746">
        <ele>930.21</ele>
        <time>2013-08-29T08:31:34Z</time>
      </trkpt>
      <trkpt lat="42.94737" lon="-0.03753">
        <ele>932.14</ele>
        <time>2013-08-29T08:31:43Z</time>
      </trkpt>
      <trkpt lat="42.94731" lon="-0.03749">
        <ele>933.58</ele>
        <time>2013-08-29T08:31:50Z</time>
      </trkpt>
      <trkpt lat="42.94731" lon="-0.03748">
        <ele>933.58</ele>
        <time>2013-08-29T08:31:51Z</time>
      </trkpt>
      <trkpt lat="42.94733" lon="-0.03742">
        <ele>934.06</ele>
        <time>2013-08-29T08:31:56Z</time>
      </trkpt>
      <trkpt lat="42.94734" lon="-0.0374">
        <ele>934.06</ele>
        <time>2013-08-29T08:31:57Z</time>
      </trkpt>
      <trkpt lat="42.94753" lon="-0.0374">
        <ele>937.42</ele>
        <time>2013-08-29T08:32:12Z</time>
      </trkpt>
      <trkpt lat="42.94761" lon="-0.03741">
        <ele>939.35</ele>
        <time>2013-08-29T08:32:19Z</time>
      </trkpt>
      <trkpt lat="42.94771" lon="-0.03742">
        <ele>940.79</ele>
        <time>2013-08-29T08:32:27Z</time>
      </trkpt>
      <trkpt lat="42.94781" lon="-0.03738">
        <ele>941.75</ele>
        <time>2013-08-29T08:32:33Z</time>
      </trkpt>
      <trkpt lat="42.94787" lon="-0.03733">
        <ele>942.71</ele>
        <time>2013-08-29T08:32:38Z</time>
      </trkpt>
      <trkpt lat="42.9479" lon="-0.0373">
        <ele>943.67</ele>
        <time>2013-08-29T08:32:40Z</time>
      </trkpt>
      <trkpt lat="42.94797" lon="-0.03725">
        <ele>945.11</ele>
        <time>2013-08-29T08:32:45Z</time>
      </trkpt>
      <trkpt lat="42.948" lon="-0.03723">
        <ele>945.59</ele>
        <time>2013-08-29T08:32:48Z</time>
      </trkpt>
      <trkpt lat="42.94802" lon="-0.0372">
        <ele>946.56</ele>
        <time>2013-08-29T08:32:50Z</time>
      </trkpt>
      <trkpt lat="42.94814" lon="-0.03714">
        <ele>949.44</ele>
        <time>2013-08-29T08:33:04Z</time>
      </trkpt>
      <trkpt lat="42.94828" lon="-0.03708">
        <ele>952.8</ele>
        <time>2013-08-29T08:33:16Z</time>
      </trkpt>
      <trkpt lat="42.94844" lon="-0.03693">
        <ele>956.17</ele>
        <time>2013-08-29T08:33:29Z</time>
      </trkpt>
      <trkpt lat="42.94846" lon="-0.0369">
        <ele>956.17</ele>
        <time>2013-08-29T08:33:32Z</time>
      </trkpt>
      <trkpt lat="42.94851" lon="-0.0368">
        <ele>957.61</ele>
        <time>2013-08-29T08:33:39Z</time>
      </trkpt>
      <trkpt lat="42.94853" lon="-0.03668">
        <ele>959.05</ele>
        <time>2013-08-29T08:33:46Z</time>
      </trkpt>
      <trkpt lat="42.94857" lon="-0.03658">
        <ele>960.49</ele>
        <time>2013-08-29T08:33:52Z</time>
      </trkpt>
      <trkpt lat="42.94863" lon="-0.03639">
        <ele>963.38</ele>
        <time>2013-08-29T08:34:05Z</time>
      </trkpt>
      <trkpt lat="42.94868" lon="-0.03624">
        <ele>965.3</ele>
        <time>2013-08-29T08:34:14Z</time>
      </trkpt>
      <trkpt lat="42.94875" lon="-0.03605">
        <ele>967.7</ele>
        <time>2013-08-29T08:34:29Z</time>
      </trkpt>
      <trkpt lat="42.94871" lon="-0.03605">
        <ele>967.7</ele>
        <time>2013-08-29T08:34:31Z</time>
      </trkpt>
      <trkpt lat="42.94866" lon="-0.03604">
        <ele>968.18</ele>
        <time>2013-08-29T08:34:36Z</time>
      </trkpt>
      <trkpt lat="42.94864" lon="-0.03606">
        <ele>968.67</ele>
        <time>2013-08-29T08:34:38Z</time>
      </trkpt>
      <trkpt lat="42.94863" lon="-0.03609">
        <ele>968.67</ele>
        <time>2013-08-29T08:34:40Z</time>
      </trkpt>
      <trkpt lat="42.94857" lon="-0.03608">
        <ele>969.63</ele>
        <time>2013-08-29T08:34:43Z</time>
      </trkpt>
      <trkpt lat="42.94859" lon="-0.03612">
        <ele>969.63</ele>
        <time>2013-08-29T08:34:46Z</time>
      </trkpt>
      <trkpt lat="42.94856" lon="-0.03617">
        <ele>970.59</ele>
        <time>2013-08-29T08:34:49Z</time>
      </trkpt>
      <trkpt lat="42.94843" lon="-0.03626">
        <ele>972.03</ele>
        <time>2013-08-29T08:34:56Z</time>
      </trkpt>
      <trkpt lat="42.94841" lon="-0.03628">
        <ele>972.51</ele>
        <time>2013-08-29T08:34:58Z</time>
      </trkpt>
      <trkpt lat="42.94827" lon="-0.03649">
        <ele>976.36</ele>
        <time>2013-08-29T08:35:13Z</time>
      </trkpt>
      <trkpt lat="42.94811" lon="-0.03657">
        <ele>978.76</ele>
        <time>2013-08-29T08:35:26Z</time>
      </trkpt>
      <trkpt lat="42.94799" lon="-0.03653">
        <ele>981.64</ele>
        <time>2013-08-29T08:35:37Z</time>
      </trkpt>
      <trkpt lat="42.94786" lon="-0.03652">
        <ele>984.53</ele>
        <time>2013-08-29T08:35:51Z</time>
      </trkpt>
      <trkpt lat="42.94781" lon="-0.03651">
        <ele>985.01</ele>
        <time>2013-08-29T08:35:53Z</time>
      </trkpt>
      <trkpt lat="42.94773" lon="-0.03648">
        <ele>986.45</ele>
        <time>2013-08-29T08:35:58Z</time>
      </trkpt>
      <trkpt lat="42.94754" lon="-0.03646">
        <ele>989.33</ele>
        <time>2013-08-29T08:36:14Z</time>
      </trkpt>
      <trkpt lat="42.94752" lon="-0.03646">
        <ele>989.81</ele>
        <time>2013-08-29T08:36:16Z</time>
      </trkpt>
      <trkpt lat="42.94736" lon="-0.03653">
        <ele>992.22</ele>
        <time>2013-08-29T08:36:31Z</time>
      </trkpt>
      <trkpt lat="42.94734" lon="-0.03653">
        <ele>992.22</ele>
        <time>2013-08-29T08:36:32Z</time>
      </trkpt>
      <trkpt lat="42.94719" lon="-0.03652">
        <ele>993.18</ele>
        <time>2013-08-29T08:36:43Z</time>
      </trkpt>
      <trkpt lat="42.94711" lon="-0.0365">
        <ele>993.66</ele>
        <time>2013-08-29T08:36:48Z</time>
      </trkpt>
      <trkpt lat="42.94701" lon="-0.03648">
        <ele>994.14</ele>
        <time>2013-08-29T08:36:55Z</time>
      </trkpt>
      <trkpt lat="42.94688" lon="-0.03648">
        <ele>996.06</ele>
        <time>2013-08-29T08:37:04Z</time>
      </trkpt>
      <trkpt lat="42.94683" lon="-0.03647">
        <ele>997.02</ele>
        <time>2013-08-29T08:37:07Z</time>
      </trkpt>
      <trkpt lat="42.9467" lon="-0.03646">
        <ele>999.43</ele>
        <time>2013-08-29T08:37:18Z</time>
      </trkpt>
      <trkpt lat="42.94663" lon="-0.03646">
        <ele>1000.87</ele>
        <time>2013-08-29T08:37:23Z</time>
      </trkpt>
      <trkpt lat="42.94659" lon="-0.03646">
        <ele>1001.35</ele>
        <time>2013-08-29T08:37:25Z</time>
      </trkpt>
      <trkpt lat="42.94639" lon="-0.03642">
        <ele>1004.23</ele>
        <time>2013-08-29T08:37:39Z</time>
      </trkpt>
      <trkpt lat="42.94637" lon="-0.03643">
        <ele>1004.72</ele>
        <time>2013-08-29T08:37:41Z</time>
      </trkpt>
      <trkpt lat="42.94625" lon="-0.03646">
        <ele>1006.16</ele>
        <time>2013-08-29T08:37:49Z</time>
      </trkpt>
      <trkpt lat="42.94617" lon="-0.03642">
        <ele>1007.12</ele>
        <time>2013-08-29T08:37:54Z</time>
      </trkpt>
      <trkpt lat="42.94607" lon="-0.0364">
        <ele>1008.08</ele>
        <time>2013-08-29T08:37:59Z</time>
      </trkpt>
      <trkpt lat="42.946" lon="-0.03638">
        <ele>1008.56</ele>
        <time>2013-08-29T08:38:02Z</time>
      </trkpt>
      <trkpt lat="42.94568" lon="-0.0361">
        <ele>1010.96</ele>
        <time>2013-08-29T08:38:21Z</time>
      </trkpt>
      <trkpt lat="42.94564" lon="-0.03606">
        <ele>1011.44</ele>
        <time>2013-08-29T08:38:24Z</time>
      </trkpt>
      <trkpt lat="42.9455" lon="-0.03606">
        <ele>1014.33</ele>
        <time>2013-08-29T08:38:36Z</time>
      </trkpt>
      <trkpt lat="42.94544" lon="-0.03594">
        <ele>1016.25</ele>
        <time>2013-08-29T08:38:45Z</time>
      </trkpt>
      <trkpt lat="42.94543" lon="-0.0359">
        <ele>1016.73</ele>
        <time>2013-08-29T08:38:47Z</time>
      </trkpt>
      <trkpt lat="42.94556" lon="-0.03576">
        <ele>1019.62</ele>
        <time>2013-08-29T08:39:00Z</time>
      </trkpt>
      <trkpt lat="42.94571" lon="-0.03554">
        <ele>1022.02</ele>
        <time>2013-08-29T08:39:15Z</time>
      </trkpt>
      <trkpt lat="42.94591" lon="-0.0354">
        <ele>1024.42</ele>
        <time>2013-08-29T08:39:30Z</time>
      </trkpt>
      <trkpt lat="42.94592" lon="-0.03539">
        <ele>1024.9</ele>
        <time>2013-08-29T08:39:31Z</time>
      </trkpt>
      <trkpt lat="42.94597" lon="-0.03538">
        <ele>1025.86</ele>
        <time>2013-08-29T08:39:35Z</time>
      </trkpt>
      <trkpt lat="42.94609" lon="-0.03539">
        <ele>1027.79</ele>
        <time>2013-08-29T08:39:44Z</time>
      </trkpt>
      <trkpt lat="42.94625" lon="-0.03529">
        <ele>1030.67</ele>
        <time>2013-08-29T08:39:59Z</time>
      </trkpt>
      <trkpt lat="42.9464" lon="-0.03514">
        <ele>1033.55</ele>
        <time>2013-08-29T08:40:14Z</time>
      </trkpt>
      <trkpt lat="42.94651" lon="-0.03504">
        <ele>1035.96</ele>
        <time>2013-08-29T08:40:27Z</time>
      </trkpt>
      <trkpt lat="42.94653" lon="-0.03504">
        <ele>1037.4</ele>
        <time>2013-08-29T08:40:31Z</time>
      </trkpt>
      <trkpt lat="42.94657" lon="-0.03504">
        <ele>1037.4</ele>
        <time>2013-08-29T08:40:33Z</time>
      </trkpt>
      <trkpt lat="42.94665" lon="-0.035">
        <ele>1038.36</ele>
        <time>2013-08-29T08:40:37Z</time>
      </trkpt>
      <trkpt lat="42.94679" lon="-0.03495">
        <ele>1039.8</ele>
        <time>2013-08-29T08:40:44Z</time>
      </trkpt>
      <trkpt lat="42.94694" lon="-0.03484">
        <ele>1041.73</ele>
        <time>2013-08-29T08:40:57Z</time>
      </trkpt>
      <trkpt lat="42.94698" lon="-0.03455">
        <ele>1044.61</ele>
        <time>2013-08-29T08:41:12Z</time>
      </trkpt>
      <trkpt lat="42.94697" lon="-0.03452">
        <ele>1045.57</ele>
        <time>2013-08-29T08:41:16Z</time>
      </trkpt>
      <trkpt lat="42.94698" lon="-0.03443">
        <ele>1046.05</ele>
        <time>2013-08-29T08:41:19Z</time>
      </trkpt>
      <trkpt lat="42.94703" lon="-0.03425">
        <ele>1048.94</ele>
        <time>2013-08-29T08:41:29Z</time>
      </trkpt>
      <trkpt lat="42.94709" lon="-0.03402">
        <ele>1049.9</ele>
        <time>2013-08-29T08:41:39Z</time>
      </trkpt>
      <trkpt lat="42.94707" lon="-0.03375">
        <ele>1051.82</ele>
        <time>2013-08-29T08:41:52Z</time>
      </trkpt>
      <trkpt lat="42.94715" lon="-0.03351">
        <ele>1054.7</ele>
        <time>2013-08-29T08:42:05Z</time>
      </trkpt>
      <trkpt lat="42.94719" lon="-0.03343">
        <ele>1055.67</ele>
        <time>2013-08-29T08:42:09Z</time>
      </trkpt>
      <trkpt lat="42.94723" lon="-0.03339">
        <ele>1056.15</ele>
        <time>2013-08-29T08:42:13Z</time>
      </trkpt>
      <trkpt lat="42.94746" lon="-0.03349">
        <ele>1058.07</ele>
        <time>2013-08-29T08:42:28Z</time>
      </trkpt>
      <trkpt lat="42.94764" lon="-0.03364">
        <ele>1059.99</ele>
        <time>2013-08-29T08:42:40Z</time>
      </trkpt>
      <trkpt lat="42.94766" lon="-0.03365">
        <ele>1059.99</ele>
        <time>2013-08-29T08:42:41Z</time>
      </trkpt>
      <trkpt lat="42.94768" lon="-0.03366">
        <ele>1060.47</ele>
        <time>2013-08-29T08:42:43Z</time>
      </trkpt>
      <trkpt lat="42.9478" lon="-0.03363">
        <ele>1062.39</ele>
        <time>2013-08-29T08:42:52Z</time>
      </trkpt>
      <trkpt lat="42.94794" lon="-0.03357">
        <ele>1065.28</ele>
        <time>2013-08-29T08:43:03Z</time>
      </trkpt>
      <trkpt lat="42.94797" lon="-0.03344">
        <ele>1066.72</ele>
        <time>2013-08-29T08:43:11Z</time>
      </trkpt>
      <trkpt lat="42.94791" lon="-0.03315">
        <ele>1069.6</ele>
        <time>2013-08-29T08:43:27Z</time>
      </trkpt>
      <trkpt lat="42.94781" lon="-0.03293">
        <ele>1072.49</ele>
        <time>2013-08-29T08:43:41Z</time>
      </trkpt>
      <trkpt lat="42.94773" lon="-0.03261">
        <ele>1075.37</ele>
        <time>2013-08-29T08:43:55Z</time>
      </trkpt>
      <trkpt lat="42.94766" lon="-0.0323">
        <ele>1078.26</ele>
        <time>2013-08-29T08:44:11Z</time>
      </trkpt>
      <trkpt lat="42.94758" lon="-0.03214">
        <ele>1080.66</ele>
        <time>2013-08-29T08:44:21Z</time>
      </trkpt>
      <trkpt lat="42.94734" lon="-0.03216">
        <ele>1081.14</ele>
        <time>2013-08-29T08:44:36Z</time>
      </trkpt>
      <trkpt lat="42.9473" lon="-0.03221">
        <ele>1081.62</ele>
        <time>2013-08-29T08:44:39Z</time>
      </trkpt>
      <trkpt lat="42.94726" lon="-0.03238">
        <ele>1083.54</ele>
        <time>2013-08-29T08:44:48Z</time>
      </trkpt>
      <trkpt lat="42.94715" lon="-0.03237">
        <ele>1085.47</ele>
        <time>2013-08-29T08:44:56Z</time>
      </trkpt>
      <trkpt lat="42.94712" lon="-0.03231">
        <ele>1085.95</ele>
        <time>2013-08-29T08:44:59Z</time>
      </trkpt>
      <trkpt lat="42.94716" lon="-0.03195">
        <ele>1087.87</ele>
        <time>2013-08-29T08:45:14Z</time>
      </trkpt>
      <trkpt lat="42.94725" lon="-0.03168">
        <ele>1087.87</ele>
        <time>2013-08-29T08:45:25Z</time>
      </trkpt>
      <trkpt lat="42.94731" lon="-0.03156">
        <ele>1088.83</ele>
        <time>2013-08-29T08:45:30Z</time>
      </trkpt>
      <trkpt lat="42.94739" lon="-0.03146">
        <ele>1090.75</ele>
        <time>2013-08-29T08:45:38Z</time>
      </trkpt>
      <trkpt lat="42.94741" lon="-0.03137">
        <ele>1090.75</ele>
        <time>2013-08-29T08:45:42Z</time>
      </trkpt>
      <trkpt lat="42.94738" lon="-0.03112">
        <ele>1094.6</ele>
        <time>2013-08-29T08:45:55Z</time>
      </trkpt>
      <trkpt lat="42.94741" lon="-0.03085">
        <ele>1097</ele>
        <time>2013-08-29T08:46:09Z</time>
      </trkpt>
      <trkpt lat="42.94735" lon="-0.03063">
        <ele>1098.44</ele>
        <time>2013-08-29T08:46:22Z</time>
      </trkpt>
      <trkpt lat="42.94731" lon="-0.03041">
        <ele>1099.4</ele>
        <time>2013-08-29T08:46:36Z</time>
      </trkpt>
      <trkpt lat="42.9473" lon="-0.03039">
        <ele>1098.92</ele>
        <time>2013-08-29T08:46:47Z</time>
      </trkpt>
      <trkpt lat="42.94731" lon="-0.03039">
        <ele>1094.6</ele>
        <time>2013-08-29T08:46:59Z</time>
      </trkpt>
      <trkpt lat="42.94731" lon="-0.03039">
        <ele>1097.48</ele>
        <time>2013-08-29T08:47:01Z</time>
      </trkpt>
      <trkpt lat="42.94732" lon="-0.0304">
        <ele>1097.48</ele>
        <time>2013-08-29T08:47:36Z</time>
      </trkpt>
      <trkpt lat="42.94732" lon="-0.0304">
        <ele>1098.92</ele>
        <time>2013-08-29T08:47:58Z</time>
      </trkpt>
      <trkpt lat="42.94732" lon="-0.0304">
        <ele>1089.79</ele>
        <time>2013-08-29T08:48:01Z</time>
      </trkpt>
      <trkpt lat="42.94732" lon="-0.0304">
        <ele>1098.92</ele>
        <time>2013-08-29T08:48:02Z</time>
      </trkpt>
      <trkpt lat="42.94731" lon="-0.0304">
        <ele>1097.48</ele>
        <time>2013-08-29T08:48:28Z</time>
      </trkpt>
      <trkpt lat="42.94731" lon="-0.03041">
        <ele>1097.96</ele>
        <time>2013-08-29T08:48:54Z</time>
      </trkpt>
      <trkpt lat="42.94731" lon="-0.03041">
        <ele>1097.48</ele>
        <time>2013-08-29T08:49:22Z</time>
      </trkpt>
      <trkpt lat="42.9473" lon="-0.0304">
        <ele>1098.92</ele>
        <time>2013-08-29T08:49:32Z</time>
      </trkpt>
      <trkpt lat="42.94732" lon="-0.03039">
        <ele>1097.96</ele>
        <time>2013-08-29T08:49:46Z</time>
      </trkpt>
      <trkpt lat="42.94732" lon="-0.03038">
        <ele>1097.96</ele>
        <time>2013-08-29T08:50:19Z</time>
      </trkpt>
      <trkpt lat="42.9473" lon="-0.0304">
        <ele>1098.44</ele>
        <time>2013-08-29T08:51:00Z</time>
      </trkpt>
      <trkpt lat="42.94729" lon="-0.0304">
        <ele>1097.96</ele>
        <time>2013-08-29T08:51:37Z</time>
      </trkpt>
      <trkpt lat="42.94729" lon="-0.03039">
        <ele>1097.96</ele>
        <time>2013-08-29T08:52:13Z</time>
      </trkpt>
      <trkpt lat="42.94731" lon="-0.03039">
        <ele>1097.96</ele>
        <time>2013-08-29T08:52:45Z</time>
      </trkpt>
      <trkpt lat="42.94731" lon="-0.03039">
        <ele>1098.44</ele>
        <time>2013-08-29T08:53:01Z</time>
      </trkpt>
      <trkpt lat="42.94731" lon="-0.03039">
        <ele>1097.96</ele>
        <time>2013-08-29T08:53:33Z</time>
      </trkpt>
      <trkpt lat="42.94731" lon="-0.03039">
        <ele>1097.48</ele>
        <time>2013-08-29T08:54:13Z</time>
      </trkpt>
      <trkpt lat="42.94731" lon="-0.0304">
        <ele>1097.96</ele>
        <time>2013-08-29T08:54:46Z</time>
      </trkpt>
      <trkpt lat="42.94731" lon="-0.03039">
        <ele>1097.96</ele>
        <time>2013-08-29T08:55:19Z</time>
      </trkpt>
      <trkpt lat="42.94731" lon="-0.03039">
        <ele>1097.96</ele>
        <time>2013-08-29T08:55:56Z</time>
      </trkpt>
      <trkpt lat="42.94731" lon="-0.0304">
        <ele>1097.96</ele>
        <time>2013-08-29T08:56:29Z</time>
      </trkpt>
      <trkpt lat="42.94731" lon="-0.0304">
        <ele>1097.96</ele>
        <time>2013-08-29T08:57:05Z</time>
      </trkpt>
      <trkpt lat="42.94731" lon="-0.03039">
        <ele>1097.96</ele>
        <time>2013-08-29T08:57:39Z</time>
      </trkpt>
      <trkpt lat="42.94731" lon="-0.03039">
        <ele>1097.96</ele>
        <time>2013-08-29T08:58:14Z</time>
      </trkpt>
      <trkpt lat="42.94731" lon="-0.03039">
        <ele>1091.71</ele>
        <time>2013-08-29T08:58:17Z</time>
      </trkpt>
      <trkpt lat="42.94731" lon="-0.03039">
        <ele>1101.33</ele>
        <time>2013-08-29T08:58:18Z</time>
      </trkpt>
      <trkpt lat="42.9473" lon="-0.03039">
        <ele>1097.48</ele>
        <time>2013-08-29T08:58:28Z</time>
      </trkpt>
      <trkpt lat="42.94731" lon="-0.03039">
        <ele>1099.4</ele>
        <time>2013-08-29T08:58:31Z</time>
      </trkpt>
      <trkpt lat="42.94733" lon="-0.0304">
        <ele>1099.4</ele>
        <time>2013-08-29T08:59:00Z</time>
      </trkpt>
      <trkpt lat="42.94733" lon="-0.0304">
        <ele>1099.4</ele>
        <time>2013-08-29T08:59:38Z</time>
      </trkpt>
      <trkpt lat="42.94733" lon="-0.0304">
        <ele>1099.4</ele>
        <time>2013-08-29T08:59:39Z</time>
      </trkpt>
      <trkpt lat="42.94732" lon="-0.0304">
        <ele>1094.6</ele>
        <time>2013-08-29T08:59:54Z</time>
      </trkpt>
      <trkpt lat="42.94732" lon="-0.0304">
        <ele>1098.92</ele>
        <time>2013-08-29T08:59:56Z</time>
      </trkpt>
      <trkpt lat="42.94732" lon="-0.03039">
        <ele>1098.92</ele>
        <time>2013-08-29T08:59:58Z</time>
      </trkpt>
      <trkpt lat="42.94731" lon="-0.03041">
        <ele>1098.92</ele>
        <time>2013-08-29T09:00:08Z</time>
      </trkpt>
      <trkpt lat="42.94729" lon="-0.03038">
        <ele>1098.92</ele>
        <time>2013-08-29T09:00:21Z</time>
      </trkpt>
      <trkpt lat="42.94729" lon="-0.03038">
        <ele>1099.4</ele>
        <time>2013-08-29T09:00:44Z</time>
      </trkpt>
      <trkpt lat="42.94728" lon="-0.03038">
        <ele>1099.89</ele>
        <time>2013-08-29T09:01:01Z</time>
      </trkpt>
      <trkpt lat="42.94728" lon="-0.03037">
        <ele>1099.4</ele>
        <time>2013-08-29T09:01:03Z</time>
      </trkpt>
      <trkpt lat="42.94727" lon="-0.03034">
        <ele>1099.4</ele>
        <time>2013-08-29T09:01:06Z</time>
      </trkpt>
      <trkpt lat="42.94729" lon="-0.03006">
        <ele>1099.4</ele>
        <time>2013-08-29T09:01:18Z</time>
      </trkpt>
      <trkpt lat="42.94733" lon="-0.02975">
        <ele>1099.89</ele>
        <time>2013-08-29T09:01:30Z</time>
      </trkpt>
      <trkpt lat="42.94733" lon="-0.02971">
        <ele>1100.37</ele>
        <time>2013-08-29T09:01:31Z</time>
      </trkpt>
      <trkpt lat="42.94744" lon="-0.02923">
        <ele>1096.52</ele>
        <time>2013-08-29T09:01:39Z</time>
      </trkpt>
      <trkpt lat="42.94747" lon="-0.02896">
        <ele>1093.64</ele>
        <time>2013-08-29T09:01:43Z</time>
      </trkpt>
      <trkpt lat="42.94753" lon="-0.02861">
        <ele>1089.79</ele>
        <time>2013-08-29T09:01:47Z</time>
      </trkpt>
      <trkpt lat="42.94753" lon="-0.02852">
        <ele>1089.79</ele>
        <time>2013-08-29T09:01:48Z</time>
      </trkpt>
      <trkpt lat="42.94755" lon="-0.02785">
        <ele>1088.35</ele>
        <time>2013-08-29T09:02:00Z</time>
      </trkpt>
      <trkpt lat="42.94777" lon="-0.02748">
        <ele>1084.5</ele>
        <time>2013-08-29T09:02:05Z</time>
      </trkpt>
      <trkpt lat="42.9479" lon="-0.02738">
        <ele>1081.62</ele>
        <time>2013-08-29T09:02:09Z</time>
      </trkpt>
      <trkpt lat="42.94794" lon="-0.02728">
        <ele>1077.78</ele>
        <time>2013-08-29T09:02:13Z</time>
      </trkpt>
      <trkpt lat="42.94799" lon="-0.02703">
        <ele>1075.37</ele>
        <time>2013-08-29T09:02:16Z</time>
      </trkpt>
      <trkpt lat="42.94796" lon="-0.02654">
        <ele>1070.57</ele>
        <time>2013-08-29T09:02:21Z</time>
      </trkpt>
      <trkpt lat="42.94797" lon="-0.02631">
        <ele>1067.2</ele>
        <time>2013-08-29T09:02:23Z</time>
      </trkpt>
      <trkpt lat="42.94797" lon="-0.02607">
        <ele>1065.28</ele>
        <time>2013-08-29T09:02:25Z</time>
      </trkpt>
      <trkpt lat="42.94806" lon="-0.02544">
        <ele>1064.8</ele>
        <time>2013-08-29T09:02:31Z</time>
      </trkpt>
      <trkpt lat="42.94813" lon="-0.02521">
        <ele>1064.32</ele>
        <time>2013-08-29T09:02:34Z</time>
      </trkpt>
      <trkpt lat="42.94836" lon="-0.02501">
        <ele>1064.32</ele>
        <time>2013-08-29T09:02:42Z</time>
      </trkpt>
      <trkpt lat="42.94847" lon="-0.02492">
        <ele>1064.32</ele>
        <time>2013-08-29T09:02:48Z</time>
      </trkpt>
      <trkpt lat="42.94853" lon="-0.02484">
        <ele>1063.84</ele>
        <time>2013-08-29T09:02:50Z</time>
      </trkpt>
      <trkpt lat="42.94895" lon="-0.02452">
        <ele>1064.8</ele>
        <time>2013-08-29T09:03:01Z</time>
      </trkpt>
      <trkpt lat="42.94929" lon="-0.02442">
        <ele>1066.24</ele>
        <time>2013-08-29T09:03:11Z</time>
      </trkpt>
      <trkpt lat="42.94964" lon="-0.02456">
        <ele>1066.24</ele>
        <time>2013-08-29T09:03:20Z</time>
      </trkpt>
      <trkpt lat="42.95" lon="-0.02457">
        <ele>1066.72</ele>
        <time>2013-08-29T09:03:30Z</time>
      </trkpt>
      <trkpt lat="42.95013" lon="-0.02462">
        <ele>1066.72</ele>
        <time>2013-08-29T09:03:34Z</time>
      </trkpt>
      <trkpt lat="42.95022" lon="-0.02523">
        <ele>1068.16</ele>
        <time>2013-08-29T09:03:50Z</time>
      </trkpt>
      <trkpt lat="42.95008" lon="-0.02581">
        <ele>1070.08</ele>
        <time>2013-08-29T09:04:05Z</time>
      </trkpt>
      <trkpt lat="42.94995" lon="-0.02611">
        <ele>1073.45</ele>
        <time>2013-08-29T09:04:17Z</time>
      </trkpt>
      <trkpt lat="42.94991" lon="-0.02643">
        <ele>1076.33</ele>
        <time>2013-08-29T09:04:29Z</time>
      </trkpt>
      <trkpt lat="42.95006" lon="-0.02655">
        <ele>1078.26</ele>
        <time>2013-08-29T09:04:41Z</time>
      </trkpt>
      <trkpt lat="42.95019" lon="-0.02664">
        <ele>1078.74</ele>
        <time>2013-08-29T09:04:51Z</time>
      </trkpt>
      <trkpt lat="42.9503" lon="-0.02686">
        <ele>1077.78</ele>
        <time>2013-08-29T09:04:58Z</time>
      </trkpt>
      <trkpt lat="42.95035" lon="-0.02734">
        <ele>1076.33</ele>
        <time>2013-08-29T09:05:07Z</time>
      </trkpt>
      <trkpt lat="42.95029" lon="-0.02779">
        <ele>1075.37</ele>
        <time>2013-08-29T09:05:16Z</time>
      </trkpt>
      <trkpt lat="42.95041" lon="-0.02812">
        <ele>1071.05</ele>
        <time>2013-08-29T09:05:21Z</time>
      </trkpt>
      <trkpt lat="42.9505" lon="-0.02826">
        <ele>1069.6</ele>
        <time>2013-08-29T09:05:23Z</time>
      </trkpt>
      <trkpt lat="42.95065" lon="-0.02861">
        <ele>1065.76</ele>
        <time>2013-08-29T09:05:28Z</time>
      </trkpt>
      <trkpt lat="42.95068" lon="-0.02868">
        <ele>1064.8</ele>
        <time>2013-08-29T09:05:29Z</time>
      </trkpt>
      <trkpt lat="42.95075" lon="-0.0288">
        <ele>1063.84</ele>
        <time>2013-08-29T09:05:31Z</time>
      </trkpt>
      <trkpt lat="42.95084" lon="-0.0289">
        <ele>1063.36</ele>
        <time>2013-08-29T09:05:33Z</time>
      </trkpt>
      <trkpt lat="42.95093" lon="-0.02925">
        <ele>1059.99</ele>
        <time>2013-08-29T09:05:39Z</time>
      </trkpt>
      <trkpt lat="42.95099" lon="-0.02945">
        <ele>1057.59</ele>
        <time>2013-08-29T09:05:42Z</time>
      </trkpt>
      <trkpt lat="42.951" lon="-0.02968">
        <ele>1053.74</ele>
        <time>2013-08-29T09:05:45Z</time>
      </trkpt>
      <trkpt lat="42.951" lon="-0.02977">
        <ele>1052.3</ele>
        <time>2013-08-29T09:05:46Z</time>
      </trkpt>
      <trkpt lat="42.951" lon="-0.02982">
        <ele>1051.34</ele>
        <time>2013-08-29T09:05:47Z</time>
      </trkpt>
      <trkpt lat="42.95106" lon="-0.03001">
        <ele>1047.97</ele>
        <time>2013-08-29T09:05:54Z</time>
      </trkpt>
      <trkpt lat="42.95109" lon="-0.03006">
        <ele>1046.05</ele>
        <time>2013-08-29T09:06:08Z</time>
      </trkpt>
      <trkpt lat="42.95109" lon="-0.03006">
        <ele>1046.53</ele>
        <time>2013-08-29T09:06:21Z</time>
      </trkpt>
      <trkpt lat="42.95111" lon="-0.0301">
        <ele>1045.57</ele>
        <time>2013-08-29T09:06:24Z</time>
      </trkpt>
      <trkpt lat="42.95115" lon="-0.03024">
        <ele>1041.73</ele>
        <time>2013-08-29T09:06:30Z</time>
      </trkpt>
      <trkpt lat="42.95115" lon="-0.03032">
        <ele>1038.84</ele>
        <time>2013-08-29T09:06:33Z</time>
      </trkpt>
      <trkpt lat="42.95115" lon="-0.03038">
        <ele>1037.4</ele>
        <time>2013-08-29T09:06:35Z</time>
      </trkpt>
      <trkpt lat="42.95115" lon="-0.03052">
        <ele>1034.52</ele>
        <time>2013-08-29T09:06:40Z</time>
      </trkpt>
      <trkpt lat="42.95122" lon="-0.03061">
        <ele>1030.67</ele>
        <time>2013-08-29T09:06:45Z</time>
      </trkpt>
      <trkpt lat="42.95129" lon="-0.03067">
        <ele>1027.31</ele>
        <time>2013-08-29T09:06:49Z</time>
      </trkpt>
      <trkpt lat="42.95135" lon="-0.03072">
        <ele>1026.34</ele>
        <time>2013-08-29T09:06:51Z</time>
      </trkpt>
      <trkpt lat="42.95147" lon="-0.03086">
        <ele>1022.02</ele>
        <time>2013-08-29T09:06:57Z</time>
      </trkpt>
      <trkpt lat="42.95148" lon="-0.03087">
        <ele>1021.54</ele>
        <time>2013-08-29T09:06:58Z</time>
      </trkpt>
      <trkpt lat="42.95152" lon="-0.03092">
        <ele>1020.58</ele>
        <time>2013-08-29T09:07:00Z</time>
      </trkpt>
      <trkpt lat="42.95155" lon="-0.031">
        <ele>1017.69</ele>
        <time>2013-08-29T09:07:03Z</time>
      </trkpt>
      <trkpt lat="42.95163" lon="-0.03119">
        <ele>1013.85</ele>
        <time>2013-08-29T09:07:07Z</time>
      </trkpt>
      <trkpt lat="42.95164" lon="-0.03122">
        <ele>1012.89</ele>
        <time>2013-08-29T09:07:08Z</time>
      </trkpt>
      <trkpt lat="42.9516" lon="-0.03135">
        <ele>1010</ele>
        <time>2013-08-29T09:07:13Z</time>
      </trkpt>
      <trkpt lat="42.95155" lon="-0.03139">
        <ele>1008.56</ele>
        <time>2013-08-29T09:07:16Z</time>
      </trkpt>
      <trkpt lat="42.95154" lon="-0.03139">
        <ele>1007.6</ele>
        <time>2013-08-29T09:07:17Z</time>
      </trkpt>
      <trkpt lat="42.95141" lon="-0.03144">
        <ele>1003.75</ele>
        <time>2013-08-29T09:07:22Z</time>
      </trkpt>
      <trkpt lat="42.95129" lon="-0.03148">
        <ele>999.43</ele>
        <time>2013-08-29T09:07:27Z</time>
      </trkpt>
      <trkpt lat="42.95123" lon="-0.03151">
        <ele>997.02</ele>
        <time>2013-08-29T09:07:30Z</time>
      </trkpt>
      <trkpt lat="42.95121" lon="-0.03157">
        <ele>995.1</ele>
        <time>2013-08-29T09:07:32Z</time>
      </trkpt>
      <trkpt lat="42.95116" lon="-0.03171">
        <ele>992.7</ele>
        <time>2013-08-29T09:07:37Z</time>
      </trkpt>
      <trkpt lat="42.95107" lon="-0.03185">
        <ele>988.37</ele>
        <time>2013-08-29T09:07:43Z</time>
      </trkpt>
      <trkpt lat="42.95104" lon="-0.03195">
        <ele>985.01</ele>
        <time>2013-08-29T09:07:47Z</time>
      </trkpt>
      <trkpt lat="42.95103" lon="-0.03205">
        <ele>981.64</ele>
        <time>2013-08-29T09:07:51Z</time>
      </trkpt>
      <trkpt lat="42.95102" lon="-0.0321">
        <ele>979.24</ele>
        <time>2013-08-29T09:07:54Z</time>
      </trkpt>
      <trkpt lat="42.95101" lon="-0.03214">
        <ele>977.8</ele>
        <time>2013-08-29T09:07:55Z</time>
      </trkpt>
      <trkpt lat="42.95102" lon="-0.03222">
        <ele>975.39</ele>
        <time>2013-08-29T09:07:58Z</time>
      </trkpt>
      <trkpt lat="42.95101" lon="-0.03224">
        <ele>974.43</ele>
        <time>2013-08-29T09:07:59Z</time>
      </trkpt>
      <trkpt lat="42.95097" lon="-0.03237">
        <ele>972.03</ele>
        <time>2013-08-29T09:08:10Z</time>
      </trkpt>
      <trkpt lat="42.95098" lon="-0.03242">
        <ele>972.03</ele>
        <time>2013-08-29T09:08:23Z</time>
      </trkpt>
      <trkpt lat="42.95102" lon="-0.03241">
        <ele>971.07</ele>
        <time>2013-08-29T09:08:26Z</time>
      </trkpt>
      <trkpt lat="42.95104" lon="-0.0324">
        <ele>970.11</ele>
        <time>2013-08-29T09:08:28Z</time>
      </trkpt>
      <trkpt lat="42.95111" lon="-0.0324">
        <ele>967.7</ele>
        <time>2013-08-29T09:08:32Z</time>
      </trkpt>
      <trkpt lat="42.95113" lon="-0.0324">
        <ele>967.22</ele>
        <time>2013-08-29T09:08:33Z</time>
      </trkpt>
      <trkpt lat="42.95122" lon="-0.03234">
        <ele>963.86</ele>
        <time>2013-08-29T09:08:38Z</time>
      </trkpt>
      <trkpt lat="42.95125" lon="-0.03234">
        <ele>962.42</ele>
        <time>2013-08-29T09:08:39Z</time>
      </trkpt>
      <trkpt lat="42.95128" lon="-0.03236">
        <ele>960.98</ele>
        <time>2013-08-29T09:08:41Z</time>
      </trkpt>
      <trkpt lat="42.95131" lon="-0.03238">
        <ele>960.01</ele>
        <time>2013-08-29T09:08:43Z</time>
      </trkpt>
      <trkpt lat="42.95135" lon="-0.03237">
        <ele>956.65</ele>
        <time>2013-08-29T09:08:46Z</time>
      </trkpt>
      <trkpt lat="42.95135" lon="-0.03237">
        <ele>955.21</ele>
        <time>2013-08-29T09:08:48Z</time>
      </trkpt>
      <trkpt lat="42.9514" lon="-0.03244">
        <ele>952.8</ele>
        <time>2013-08-29T09:08:50Z</time>
      </trkpt>
      <trkpt lat="42.95142" lon="-0.03248">
        <ele>950.4</ele>
        <time>2013-08-29T09:08:54Z</time>
      </trkpt>
      <trkpt lat="42.95144" lon="-0.03253">
        <ele>948.48</ele>
        <time>2013-08-29T09:08:56Z</time>
      </trkpt>
      <trkpt lat="42.95144" lon="-0.03257">
        <ele>947.52</ele>
        <time>2013-08-29T09:08:57Z</time>
      </trkpt>
      <trkpt lat="42.95138" lon="-0.03264">
        <ele>945.59</ele>
        <time>2013-08-29T09:09:00Z</time>
      </trkpt>
      <trkpt lat="42.95135" lon="-0.0327">
        <ele>943.67</ele>
        <time>2013-08-29T09:09:02Z</time>
      </trkpt>
      <trkpt lat="42.95135" lon="-0.03286">
        <ele>940.79</ele>
        <time>2013-08-29T09:09:07Z</time>
      </trkpt>
      <trkpt lat="42.95135" lon="-0.03291">
        <ele>938.38</ele>
        <time>2013-08-29T09:09:10Z</time>
      </trkpt>
      <trkpt lat="42.95136" lon="-0.03297">
        <ele>935.98</ele>
        <time>2013-08-29T09:09:12Z</time>
      </trkpt>
      <trkpt lat="42.95134" lon="-0.03304">
        <ele>933.1</ele>
        <time>2013-08-29T09:09:16Z</time>
      </trkpt>
      <trkpt lat="42.95134" lon="-0.03314">
        <ele>930.69</ele>
        <time>2013-08-29T09:09:20Z</time>
      </trkpt>
      <trkpt lat="42.95135" lon="-0.03328">
        <ele>926.85</ele>
        <time>2013-08-29T09:09:24Z</time>
      </trkpt>
      <trkpt lat="42.95134" lon="-0.03336">
        <ele>924.93</ele>
        <time>2013-08-29T09:09:26Z</time>
      </trkpt>
      <trkpt lat="42.95136" lon="-0.03356">
        <ele>922.04</ele>
        <time>2013-08-29T09:09:29Z</time>
      </trkpt>
      <trkpt lat="42.95134" lon="-0.03362">
        <ele>921.08</ele>
        <time>2013-08-29T09:09:30Z</time>
      </trkpt>
      <trkpt lat="42.95136" lon="-0.03365">
        <ele>920.6</ele>
        <time>2013-08-29T09:09:31Z</time>
      </trkpt>
      <trkpt lat="42.95135" lon="-0.03369">
        <ele>919.16</ele>
        <time>2013-08-29T09:09:33Z</time>
      </trkpt>
      <trkpt lat="42.95136" lon="-0.0337">
        <ele>919.16</ele>
        <time>2013-08-29T09:09:34Z</time>
      </trkpt>
      <trkpt lat="42.95138" lon="-0.03377">
        <ele>917.72</ele>
        <time>2013-08-29T09:09:37Z</time>
      </trkpt>
      <trkpt lat="42.95138" lon="-0.03384">
        <ele>916.75</ele>
        <time>2013-08-29T09:09:38Z</time>
      </trkpt>
      <trkpt lat="42.95138" lon="-0.03393">
        <ele>915.31</ele>
        <time>2013-08-29T09:09:40Z</time>
      </trkpt>
      <trkpt lat="42.95138" lon="-0.034">
        <ele>914.35</ele>
        <time>2013-08-29T09:09:41Z</time>
      </trkpt>
      <trkpt lat="42.95137" lon="-0.03406">
        <ele>913.87</ele>
        <time>2013-08-29T09:09:42Z</time>
      </trkpt>
      <trkpt lat="42.9513" lon="-0.03424">
        <ele>910.51</ele>
        <time>2013-08-29T09:09:46Z</time>
      </trkpt>
      <trkpt lat="42.95127" lon="-0.03433">
        <ele>907.62</ele>
        <time>2013-08-29T09:09:50Z</time>
      </trkpt>
      <trkpt lat="42.95127" lon="-0.03434">
        <ele>907.14</ele>
        <time>2013-08-29T09:09:51Z</time>
      </trkpt>
      <trkpt lat="42.95126" lon="-0.0344">
        <ele>905.7</ele>
        <time>2013-08-29T09:09:53Z</time>
      </trkpt>
      <trkpt lat="42.95122" lon="-0.03445">
        <ele>903.78</ele>
        <time>2013-08-29T09:09:56Z</time>
      </trkpt>
      <trkpt lat="42.95117" lon="-0.03447">
        <ele>902.82</ele>
        <time>2013-08-29T09:09:57Z</time>
      </trkpt>
      <trkpt lat="42.95114" lon="-0.03449">
        <ele>901.85</ele>
        <time>2013-08-29T09:09:58Z</time>
      </trkpt>
      <trkpt lat="42.95106" lon="-0.03467">
        <ele>898.49</ele>
        <time>2013-08-29T09:10:03Z</time>
      </trkpt>
      <trkpt lat="42.95104" lon="-0.03484">
        <ele>894.64</ele>
        <time>2013-08-29T09:10:07Z</time>
      </trkpt>
      <trkpt lat="42.95099" lon="-0.03492">
        <ele>891.76</ele>
        <time>2013-08-29T09:10:10Z</time>
      </trkpt>
      <trkpt lat="42.951" lon="-0.03494">
        <ele>890.32</ele>
        <time>2013-08-29T09:10:12Z</time>
      </trkpt>
      <trkpt lat="42.95102" lon="-0.03495">
        <ele>889.36</ele>
        <time>2013-08-29T09:10:13Z</time>
      </trkpt>
      <trkpt lat="42.951" lon="-0.03498">
        <ele>888.88</ele>
        <time>2013-08-29T09:10:14Z</time>
      </trkpt>
      <trkpt lat="42.95096" lon="-0.03511">
        <ele>885.99</ele>
        <time>2013-08-29T09:10:17Z</time>
      </trkpt>
      <trkpt lat="42.95095" lon="-0.03514">
        <ele>885.03</ele>
        <time>2013-08-29T09:10:18Z</time>
      </trkpt>
      <trkpt lat="42.95095" lon="-0.03516">
        <ele>884.07</ele>
        <time>2013-08-29T09:10:19Z</time>
      </trkpt>
      <trkpt lat="42.95095" lon="-0.03521">
        <ele>881.67</ele>
        <time>2013-08-29T09:10:21Z</time>
      </trkpt>
      <trkpt lat="42.95098" lon="-0.0353">
        <ele>878.78</ele>
        <time>2013-08-29T09:10:24Z</time>
      </trkpt>
      <trkpt lat="42.95102" lon="-0.03535">
        <ele>875.9</ele>
        <time>2013-08-29T09:10:27Z</time>
      </trkpt>
      <trkpt lat="42.95107" lon="-0.03539">
        <ele>872.53</ele>
        <time>2013-08-29T09:10:29Z</time>
      </trkpt>
      <trkpt lat="42.95109" lon="-0.0354">
        <ele>872.53</ele>
        <time>2013-08-29T09:10:30Z</time>
      </trkpt>
      <trkpt lat="42.95114" lon="-0.03549">
        <ele>869.65</ele>
        <time>2013-08-29T09:10:33Z</time>
      </trkpt>
      <trkpt lat="42.95121" lon="-0.03569">
        <ele>865.8</ele>
        <time>2013-08-29T09:10:37Z</time>
      </trkpt>
      <trkpt lat="42.95121" lon="-0.0357">
        <ele>865.8</ele>
        <time>2013-08-29T09:10:38Z</time>
      </trkpt>
      <trkpt lat="42.95122" lon="-0.03573">
        <ele>864.84</ele>
        <time>2013-08-29T09:10:39Z</time>
      </trkpt>
      <trkpt lat="42.95125" lon="-0.03581">
        <ele>861.48</ele>
        <time>2013-08-29T09:10:41Z</time>
      </trkpt>
      <trkpt lat="42.95129" lon="-0.03595">
        <ele>858.59</ele>
        <time>2013-08-29T09:10:47Z</time>
      </trkpt>
      <trkpt lat="42.95129" lon="-0.03596">
        <ele>858.11</ele>
        <time>2013-08-29T09:10:48Z</time>
      </trkpt>
      <trkpt lat="42.95123" lon="-0.036">
        <ele>855.71</ele>
        <time>2013-08-29T09:10:52Z</time>
      </trkpt>
      <trkpt lat="42.95116" lon="-0.03599">
        <ele>852.35</ele>
        <time>2013-08-29T09:10:54Z</time>
      </trkpt>
      <trkpt lat="42.95111" lon="-0.03599">
        <ele>850.42</ele>
        <time>2013-08-29T09:10:56Z</time>
      </trkpt>
      <trkpt lat="42.95108" lon="-0.03599">
        <ele>848.98</ele>
        <time>2013-08-29T09:10:57Z</time>
      </trkpt>
      <trkpt lat="42.95097" lon="-0.03603">
        <ele>846.1</ele>
        <time>2013-08-29T09:11:00Z</time>
      </trkpt>
      <trkpt lat="42.95088" lon="-0.03604">
        <ele>842.73</ele>
        <time>2013-08-29T09:11:03Z</time>
      </trkpt>
      <trkpt lat="42.95084" lon="-0.03604">
        <ele>841.29</ele>
        <time>2013-08-29T09:11:04Z</time>
      </trkpt>
      <trkpt lat="42.95072" lon="-0.03598">
        <ele>838.41</ele>
        <time>2013-08-29T09:11:07Z</time>
      </trkpt>
      <trkpt lat="42.9506" lon="-0.03595">
        <ele>835.04</ele>
        <time>2013-08-29T09:11:13Z</time>
      </trkpt>
      <trkpt lat="42.95058" lon="-0.03594">
        <ele>833.6</ele>
        <time>2013-08-29T09:11:14Z</time>
      </trkpt>
      <trkpt lat="42.95056" lon="-0.03595">
        <ele>832.64</ele>
        <time>2013-08-29T09:11:15Z</time>
      </trkpt>
      <trkpt lat="42.95047" lon="-0.03591">
        <ele>829.76</ele>
        <time>2013-08-29T09:11:20Z</time>
      </trkpt>
      <trkpt lat="42.95036" lon="-0.03587">
        <ele>826.87</ele>
        <time>2013-08-29T09:11:25Z</time>
      </trkpt>
      <trkpt lat="42.95028" lon="-0.03582">
        <ele>824.95</ele>
        <time>2013-08-29T09:11:38Z</time>
      </trkpt>
      <trkpt lat="42.9508" lon="-0.03663">
        <ele>823.99</ele>
        <time>2013-08-29T09:12:04Z</time>
      </trkpt>
      <trkpt lat="42.95083" lon="-0.03657">
        <ele>824.47</ele>
        <time>2013-08-29T09:12:24Z</time>
      </trkpt>
      <trkpt lat="42.95081" lon="-0.03654">
        <ele>825.43</ele>
        <time>2013-08-29T09:12:49Z</time>
      </trkpt>
      <trkpt lat="42.95081" lon="-0.03655">
        <ele>826.39</ele>
        <time>2013-08-29T09:12:52Z</time>
      </trkpt>
      <trkpt lat="42.95078" lon="-0.03649">
        <ele>828.31</ele>
        <time>2013-08-29T09:12:56Z</time>
      </trkpt>
      <trkpt lat="42.95072" lon="-0.03646">
        <ele>829.76</ele>
        <time>2013-08-29T09:13:01Z</time>
      </trkpt>
      <trkpt lat="42.95071" lon="-0.03647">
        <ele>830.72</ele>
        <time>2013-08-29T09:13:04Z</time>
      </trkpt>
      <trkpt lat="42.95073" lon="-0.03657">
        <ele>834.08</ele>
        <time>2013-08-29T09:13:13Z</time>
      </trkpt>
      <trkpt lat="42.95066" lon="-0.03659">
        <ele>835.04</ele>
        <time>2013-08-29T09:13:29Z</time>
      </trkpt>
      <trkpt lat="42.95062" lon="-0.03666">
        <ele>837.93</ele>
        <time>2013-08-29T09:13:44Z</time>
      </trkpt>
      <trkpt lat="42.95055" lon="-0.0367">
        <ele>840.81</ele>
        <time>2013-08-29T09:13:57Z</time>
      </trkpt>
      <trkpt lat="42.95051" lon="-0.03674">
        <ele>843.69</ele>
        <time>2013-08-29T09:14:08Z</time>
      </trkpt>
      <trkpt lat="42.95048" lon="-0.03681">
        <ele>846.58</ele>
        <time>2013-08-29T09:14:22Z</time>
      </trkpt>
      <trkpt lat="42.95043" lon="-0.0368">
        <ele>846.1</ele>
        <time>2013-08-29T09:14:40Z</time>
      </trkpt>
      <trkpt lat="42.95038" lon="-0.03681">
        <ele>847.06</ele>
        <time>2013-08-29T09:15:03Z</time>
      </trkpt>
      <trkpt lat="42.95037" lon="-0.03683">
        <ele>846.58</ele>
        <time>2013-08-29T09:15:15Z</time>
      </trkpt>
      <trkpt lat="42.95036" lon="-0.03687">
        <ele>846.58</ele>
        <time>2013-08-29T09:15:17Z</time>
      </trkpt>
      <trkpt lat="42.95034" lon="-0.03707">
        <ele>844.66</ele>
        <time>2013-08-29T09:15:24Z</time>
      </trkpt>
      <trkpt lat="42.95033" lon="-0.03726">
        <ele>842.25</ele>
        <time>2013-08-29T09:15:27Z</time>
      </trkpt>
      <trkpt lat="42.95036" lon="-0.03741">
        <ele>841.29</ele>
        <time>2013-08-29T09:15:29Z</time>
      </trkpt>
      <trkpt lat="42.95043" lon="-0.03785">
        <ele>835.04</ele>
        <time>2013-08-29T09:15:34Z</time>
      </trkpt>
      <trkpt lat="42.95044" lon="-0.03791">
        <ele>833.6</ele>
        <time>2013-08-29T09:15:35Z</time>
      </trkpt>
      <trkpt lat="42.95048" lon="-0.03805">
        <ele>832.16</ele>
        <time>2013-08-29T09:15:36Z</time>
      </trkpt>
      <trkpt lat="42.95056" lon="-0.03837">
        <ele>827.35</ele>
        <time>2013-08-29T09:15:39Z</time>
      </trkpt>
      <trkpt lat="42.95063" lon="-0.03869">
        <ele>823.99</ele>
        <time>2013-08-29T09:15:42Z</time>
      </trkpt>
      <trkpt lat="42.95065" lon="-0.03879">
        <ele>821.1</ele>
        <time>2013-08-29T09:15:43Z</time>
      </trkpt>
      <trkpt lat="42.95068" lon="-0.03896">
        <ele>818.7</ele>
        <time>2013-08-29T09:15:45Z</time>
      </trkpt>
      <trkpt lat="42.95062" lon="-0.03928">
        <ele>814.37</ele>
        <time>2013-08-29T09:15:48Z</time>
      </trkpt>
      <trkpt lat="42.95061" lon="-0.03951">
        <ele>811.49</ele>
        <time>2013-08-29T09:15:50Z</time>
      </trkpt>
      <trkpt lat="42.95061" lon="-0.03962">
        <ele>809.57</ele>
        <time>2013-08-29T09:15:51Z</time>
      </trkpt>
      <trkpt lat="42.95061" lon="-0.03984">
        <ele>807.64</ele>
        <time>2013-08-29T09:15:53Z</time>
      </trkpt>
      <trkpt lat="42.95062" lon="-0.04016">
        <ele>803.32</ele>
        <time>2013-08-29T09:15:56Z</time>
      </trkpt>
      <trkpt lat="42.95062" lon="-0.04037">
        <ele>799.95</ele>
        <time>2013-08-29T09:15:58Z</time>
      </trkpt>
      <trkpt lat="42.95062" lon="-0.04047">
        <ele>798.51</ele>
        <time>2013-08-29T09:15:59Z</time>
      </trkpt>
      <trkpt lat="42.95066" lon="-0.04084">
        <ele>792.74</ele>
        <time>2013-08-29T09:16:03Z</time>
      </trkpt>
      <trkpt lat="42.95068" lon="-0.04093">
        <ele>790.82</ele>
        <time>2013-08-29T09:16:04Z</time>
      </trkpt>
      <trkpt lat="42.95073" lon="-0.04113">
        <ele>788.42</ele>
        <time>2013-08-29T09:16:06Z</time>
      </trkpt>
      <trkpt lat="42.95074" lon="-0.04158">
        <ele>784.09</ele>
        <time>2013-08-29T09:16:10Z</time>
      </trkpt>
      <trkpt lat="42.95074" lon="-0.0417">
        <ele>782.65</ele>
        <time>2013-08-29T09:16:11Z</time>
      </trkpt>
      <trkpt lat="42.95072" lon="-0.04193">
        <ele>781.21</ele>
        <time>2013-08-29T09:16:13Z</time>
      </trkpt>
      <trkpt lat="42.9507" lon="-0.04204">
        <ele>780.25</ele>
        <time>2013-08-29T09:16:14Z</time>
      </trkpt>
      <trkpt lat="42.95071" lon="-0.04227">
        <ele>776.88</ele>
        <time>2013-08-29T09:16:16Z</time>
      </trkpt>
      <trkpt lat="42.95069" lon="-0.04246">
        <ele>776.4</ele>
        <time>2013-08-29T09:16:18Z</time>
      </trkpt>
      <trkpt lat="42.95063" lon="-0.04265">
        <ele>775.44</ele>
        <time>2013-08-29T09:16:20Z</time>
      </trkpt>
      <trkpt lat="42.95042" lon="-0.043">
        <ele>770.15</ele>
        <time>2013-08-29T09:16:25Z</time>
      </trkpt>
      <trkpt lat="42.95018" lon="-0.04301">
        <ele>766.79</ele>
        <time>2013-08-29T09:16:29Z</time>
      </trkpt>
      <trkpt lat="42.95012" lon="-0.04305">
        <ele>766.31</ele>
        <time>2013-08-29T09:16:30Z</time>
      </trkpt>
      <trkpt lat="42.95009" lon="-0.04309">
        <ele>764.87</ele>
        <time>2013-08-29T09:16:31Z</time>
      </trkpt>
      <trkpt lat="42.94996" lon="-0.04345">
        <ele>761.5</ele>
        <time>2013-08-29T09:16:34Z</time>
      </trkpt>
      <trkpt lat="42.94991" lon="-0.04357">
        <ele>759.58</ele>
        <time>2013-08-29T09:16:35Z</time>
      </trkpt>
      <trkpt lat="42.94983" lon="-0.0442">
        <ele>754.77</ele>
        <time>2013-08-29T09:16:39Z</time>
      </trkpt>
      <trkpt lat="42.9498" lon="-0.04434">
        <ele>753.81</ele>
        <time>2013-08-29T09:16:40Z</time>
      </trkpt>
      <trkpt lat="42.94973" lon="-0.04486">
        <ele>751.89</ele>
        <time>2013-08-29T09:16:44Z</time>
      </trkpt>
      <trkpt lat="42.94977" lon="-0.04511">
        <ele>751.41</ele>
        <time>2013-08-29T09:16:46Z</time>
      </trkpt>
      <trkpt lat="42.9499" lon="-0.04561">
        <ele>746.6</ele>
        <time>2013-08-29T09:16:51Z</time>
      </trkpt>
      <trkpt lat="42.94992" lon="-0.04566">
        <ele>746.12</ele>
        <time>2013-08-29T09:16:52Z</time>
      </trkpt>
      <trkpt lat="42.94995" lon="-0.04577">
        <ele>746.12</ele>
        <time>2013-08-29T09:16:55Z</time>
      </trkpt>
      <trkpt lat="42.94998" lon="-0.04591">
        <ele>745.16</ele>
        <time>2013-08-29T09:17:00Z</time>
      </trkpt>
      <trkpt lat="42.95" lon="-0.04596">
        <ele>745.16</ele>
        <time>2013-08-29T09:17:02Z</time>
      </trkpt>
      <trkpt lat="42.94992" lon="-0.04605">
        <ele>744.2</ele>
        <time>2013-08-29T09:17:09Z</time>
      </trkpt>
      <trkpt lat="42.94976" lon="-0.046">
        <ele>740.83</ele>
        <time>2013-08-29T09:17:16Z</time>
      </trkpt>
      <trkpt lat="42.94971" lon="-0.04601">
        <ele>738.91</ele>
        <time>2013-08-29T09:17:18Z</time>
      </trkpt>
      <trkpt lat="42.94961" lon="-0.04611">
        <ele>734.58</ele>
        <time>2013-08-29T09:17:23Z</time>
      </trkpt>
      <trkpt lat="42.94959" lon="-0.04604">
        <ele>733.14</ele>
        <time>2013-08-29T09:17:26Z</time>
      </trkpt>
      <trkpt lat="42.94957" lon="-0.04598">
        <ele>731.7</ele>
        <time>2013-08-29T09:17:28Z</time>
      </trkpt>
      <trkpt lat="42.94953" lon="-0.04577">
        <ele>726.89</ele>
        <time>2013-08-29T09:17:33Z</time>
      </trkpt>
      <trkpt lat="42.9495" lon="-0.04571">
        <ele>723.53</ele>
        <time>2013-08-29T09:17:36Z</time>
      </trkpt>
      <trkpt lat="42.94947" lon="-0.04565">
        <ele>722.09</ele>
        <time>2013-08-29T09:17:41Z</time>
      </trkpt>
      <trkpt lat="42.94948" lon="-0.04566">
        <ele>723.05</ele>
        <time>2013-08-29T09:17:43Z</time>
      </trkpt>
      <trkpt lat="42.94947" lon="-0.04559">
        <ele>721.61</ele>
        <time>2013-08-29T09:17:53Z</time>
      </trkpt>
      <trkpt lat="42.94946" lon="-0.04577">
        <ele>723.05</ele>
        <time>2013-08-29T09:18:06Z</time>
      </trkpt>
      <trkpt lat="42.94945" lon="-0.04583">
        <ele>723.53</ele>
        <time>2013-08-29T09:18:09Z</time>
      </trkpt>
      <trkpt lat="42.94943" lon="-0.04587">
        <ele>723.53</ele>
        <time>2013-08-29T09:18:11Z</time>
      </trkpt>
      <trkpt lat="42.94932" lon="-0.04608">
        <ele>724.49</ele>
        <time>2013-08-29T09:18:21Z</time>
      </trkpt>
      <trkpt lat="42.94931" lon="-0.0461">
        <ele>724.01</ele>
        <time>2013-08-29T09:18:22Z</time>
      </trkpt>
      <trkpt lat="42.94928" lon="-0.04623">
        <ele>723.53</ele>
        <time>2013-08-29T09:18:29Z</time>
      </trkpt>
      <trkpt lat="42.94929" lon="-0.04641">
        <ele>724.01</ele>
        <time>2013-08-29T09:18:35Z</time>
      </trkpt>
      <trkpt lat="42.94928" lon="-0.04659">
        <ele>724.97</ele>
        <time>2013-08-29T09:18:40Z</time>
      </trkpt>
      <trkpt lat="42.94922" lon="-0.04674">
        <ele>725.93</ele>
        <time>2013-08-29T09:18:45Z</time>
      </trkpt>
      <trkpt lat="42.94905" lon="-0.04696">
        <ele>727.86</ele>
        <time>2013-08-29T09:18:53Z</time>
      </trkpt>
      <trkpt lat="42.94899" lon="-0.04704">
        <ele>727.86</ele>
        <time>2013-08-29T09:18:56Z</time>
      </trkpt>
      <trkpt lat="42.94892" lon="-0.04719">
        <ele>728.82</ele>
        <time>2013-08-29T09:19:03Z</time>
      </trkpt>
      <trkpt lat="42.94888" lon="-0.04729">
        <ele>729.78</ele>
        <time>2013-08-29T09:19:08Z</time>
      </trkpt>
      <trkpt lat="42.9488" lon="-0.04747">
        <ele>733.14</ele>
        <time>2013-08-29T09:19:18Z</time>
      </trkpt>
      <trkpt lat="42.94873" lon="-0.04757">
        <ele>736.51</ele>
        <time>2013-08-29T09:19:27Z</time>
      </trkpt>
      <trkpt lat="42.94872" lon="-0.04758">
        <ele>736.51</ele>
        <time>2013-08-29T09:19:30Z</time>
      </trkpt>
      <trkpt lat="42.94869" lon="-0.04758">
        <ele>736.99</ele>
        <time>2013-08-29T09:19:35Z</time>
      </trkpt>
      <trkpt lat="42.94867" lon="-0.04758">
        <ele>736.03</ele>
        <time>2013-08-29T09:19:37Z</time>
      </trkpt>
      <trkpt lat="42.94853" lon="-0.04769">
        <ele>732.66</ele>
        <time>2013-08-29T09:19:45Z</time>
      </trkpt>
      <trkpt lat="42.94852" lon="-0.04769">
        <ele>732.18</ele>
        <time>2013-08-29T09:19:46Z</time>
      </trkpt>
      <trkpt lat="42.94836" lon="-0.04778">
        <ele>730.26</ele>
        <time>2013-08-29T09:19:51Z</time>
      </trkpt>
      <trkpt lat="42.94818" lon="-0.04787">
        <ele>728.34</ele>
        <time>2013-08-29T09:19:59Z</time>
      </trkpt>
      <trkpt lat="42.94812" lon="-0.04788">
        <ele>729.3</ele>
        <time>2013-08-29T09:20:10Z</time>
      </trkpt>
      <trkpt lat="42.94807" lon="-0.04791">
        <ele>729.3</ele>
        <time>2013-08-29T09:20:36Z</time>
      </trkpt>
      <trkpt lat="42.94806" lon="-0.04791">
        <ele>728.82</ele>
        <time>2013-08-29T09:20:44Z</time>
      </trkpt>
      <trkpt lat="42.94797" lon="-0.04799">
        <ele>728.82</ele>
        <time>2013-08-29T09:20:50Z</time>
      </trkpt>
      <trkpt lat="42.94799" lon="-0.04809">
        <ele>728.82</ele>
        <time>2013-08-29T09:20:54Z</time>
      </trkpt>
      <trkpt lat="42.948" lon="-0.04819">
        <ele>727.37</ele>
        <time>2013-08-29T09:21:01Z</time>
      </trkpt>
      <trkpt lat="42.94798" lon="-0.04822">
        <ele>725.93</ele>
        <time>2013-08-29T09:21:06Z</time>
      </trkpt>
      <trkpt lat="42.94801" lon="-0.04821">
        <ele>724.49</ele>
        <time>2013-08-29T09:21:10Z</time>
      </trkpt>
      <trkpt lat="42.94802" lon="-0.04823">
        <ele>724.01</ele>
        <time>2013-08-29T09:21:12Z</time>
      </trkpt>
      <trkpt lat="42.94803" lon="-0.04823">
        <ele>723.53</ele>
        <time>2013-08-29T09:21:13Z</time>
      </trkpt>
      <trkpt lat="42.94806" lon="-0.04835">
        <ele>721.61</ele>
        <time>2013-08-29T09:21:18Z</time>
      </trkpt>
      <trkpt lat="42.94807" lon="-0.04841">
        <ele>720.65</ele>
        <time>2013-08-29T09:21:22Z</time>
      </trkpt>
      <trkpt lat="42.94808" lon="-0.04843">
        <ele>720.16</ele>
        <time>2013-08-29T09:21:24Z</time>
      </trkpt>
      <trkpt lat="42.9481" lon="-0.04857">
        <ele>719.68</ele>
        <time>2013-08-29T09:21:32Z</time>
      </trkpt>
      <trkpt lat="42.94813" lon="-0.04869">
        <ele>716.8</ele>
        <time>2013-08-29T09:21:38Z</time>
      </trkpt>
      <trkpt lat="42.94821" lon="-0.04872">
        <ele>713.92</ele>
        <time>2013-08-29T09:21:43Z</time>
      </trkpt>
      <trkpt lat="42.94824" lon="-0.04877">
        <ele>711.99</ele>
        <time>2013-08-29T09:21:48Z</time>
      </trkpt>
      <trkpt lat="42.94824" lon="-0.04877">
        <ele>712.47</ele>
        <time>2013-08-29T09:21:49Z</time>
      </trkpt>
      <trkpt lat="42.94832" lon="-0.04888">
        <ele>712.47</ele>
        <time>2013-08-29T09:21:55Z</time>
      </trkpt>
      <trkpt lat="42.9484" lon="-0.04896">
        <ele>713.44</ele>
        <time>2013-08-29T09:22:06Z</time>
      </trkpt>
      <trkpt lat="42.94842" lon="-0.049">
        <ele>713.92</ele>
        <time>2013-08-29T09:22:27Z</time>
      </trkpt>
      <trkpt lat="42.94845" lon="-0.04905">
        <ele>713.92</ele>
        <time>2013-08-29T09:22:40Z</time>
      </trkpt>
      <trkpt lat="42.9485" lon="-0.04915">
        <ele>712.47</ele>
        <time>2013-08-29T09:22:45Z</time>
      </trkpt>
      <trkpt lat="42.94857" lon="-0.04927">
        <ele>711.99</ele>
        <time>2013-08-29T09:22:48Z</time>
      </trkpt>
      <trkpt lat="42.94862" lon="-0.04937">
        <ele>710.55</ele>
        <time>2013-08-29T09:22:50Z</time>
      </trkpt>
      <trkpt lat="42.94865" lon="-0.04942">
        <ele>710.55</ele>
        <time>2013-08-29T09:22:51Z</time>
      </trkpt>
      <trkpt lat="42.94878" lon="-0.0497">
        <ele>705.75</ele>
        <time>2013-08-29T09:22:58Z</time>
      </trkpt>
      <trkpt lat="42.94879" lon="-0.04972">
        <ele>704.78</ele>
        <time>2013-08-29T09:22:59Z</time>
      </trkpt>
      <trkpt lat="42.94889" lon="-0.04986">
        <ele>700.94</ele>
        <time>2013-08-29T09:23:02Z</time>
      </trkpt>
      <trkpt lat="42.94896" lon="-0.04993">
        <ele>697.57</ele>
        <time>2013-08-29T09:23:04Z</time>
      </trkpt>
      <trkpt lat="42.94899" lon="-0.04995">
        <ele>696.13</ele>
        <time>2013-08-29T09:23:05Z</time>
      </trkpt>
      <trkpt lat="42.94906" lon="-0.05009">
        <ele>692.29</ele>
        <time>2013-08-29T09:23:07Z</time>
      </trkpt>
      <trkpt lat="42.94909" lon="-0.05013">
        <ele>691.33</ele>
        <time>2013-08-29T09:23:08Z</time>
      </trkpt>
      <trkpt lat="42.94919" lon="-0.05024">
        <ele>687.96</ele>
        <time>2013-08-29T09:23:10Z</time>
      </trkpt>
      <trkpt lat="42.94931" lon="-0.05048">
        <ele>682.67</ele>
        <time>2013-08-29T09:23:15Z</time>
      </trkpt>
      <trkpt lat="42.94938" lon="-0.05068">
        <ele>679.31</ele>
        <time>2013-08-29T09:23:19Z</time>
      </trkpt>
      <trkpt lat="42.94945" lon="-0.05085">
        <ele>675.94</ele>
        <time>2013-08-29T09:23:23Z</time>
      </trkpt>
      <trkpt lat="42.9495" lon="-0.05096">
        <ele>674.98</ele>
        <time>2013-08-29T09:23:25Z</time>
      </trkpt>
      <trkpt lat="42.94956" lon="-0.05124">
        <ele>672.1</ele>
        <time>2013-08-29T09:23:35Z</time>
      </trkpt>
      <trkpt lat="42.94957" lon="-0.05129">
        <ele>671.62</ele>
        <time>2013-08-29T09:23:39Z</time>
      </trkpt>
      <trkpt lat="42.94958" lon="-0.05137">
        <ele>670.66</ele>
        <time>2013-08-29T09:23:42Z</time>
      </trkpt>
      <trkpt lat="42.94958" lon="-0.05153">
        <ele>668.25</ele>
        <time>2013-08-29T09:23:46Z</time>
      </trkpt>
      <trkpt lat="42.94958" lon="-0.05167">
        <ele>663.93</ele>
        <time>2013-08-29T09:23:50Z</time>
      </trkpt>
      <trkpt lat="42.94959" lon="-0.05176">
        <ele>661.04</ele>
        <time>2013-08-29T09:23:54Z</time>
      </trkpt>
      <trkpt lat="42.94958" lon="-0.05181">
        <ele>659.12</ele>
        <time>2013-08-29T09:23:57Z</time>
      </trkpt>
      <trkpt lat="42.94955" lon="-0.05186">
        <ele>656.72</ele>
        <time>2013-08-29T09:24:01Z</time>
      </trkpt>
      <trkpt lat="42.94952" lon="-0.0519">
        <ele>654.31</ele>
        <time>2013-08-29T09:24:04Z</time>
      </trkpt>
      <trkpt lat="42.94949" lon="-0.05189">
        <ele>652.87</ele>
        <time>2013-08-29T09:24:06Z</time>
      </trkpt>
      <trkpt lat="42.94948" lon="-0.0519">
        <ele>651.43</ele>
        <time>2013-08-29T09:24:08Z</time>
      </trkpt>
      <trkpt lat="42.94951" lon="-0.05201">
        <ele>650.95</ele>
        <time>2013-08-29T09:24:13Z</time>
      </trkpt>
      <trkpt lat="42.94954" lon="-0.05213">
        <ele>648.55</ele>
        <time>2013-08-29T09:24:17Z</time>
      </trkpt>
      <trkpt lat="42.94958" lon="-0.05226">
        <ele>645.66</ele>
        <time>2013-08-29T09:24:21Z</time>
      </trkpt>
      <trkpt lat="42.94961" lon="-0.05231">
        <ele>643.74</ele>
        <time>2013-08-29T09:24:23Z</time>
      </trkpt>
      <trkpt lat="42.94961" lon="-0.05234">
        <ele>642.3</ele>
        <time>2013-08-29T09:24:35Z</time>
      </trkpt>
      <trkpt lat="42.94959" lon="-0.05235">
        <ele>642.78</ele>
        <time>2013-08-29T09:24:53Z</time>
      </trkpt>
      <trkpt lat="42.94972" lon="-0.05251">
        <ele>639.41</ele>
        <time>2013-08-29T09:25:01Z</time>
      </trkpt>
      <trkpt lat="42.94976" lon="-0.05259">
        <ele>637.49</ele>
        <time>2013-08-29T09:25:04Z</time>
      </trkpt>
      <trkpt lat="42.94976" lon="-0.0526">
        <ele>636.53</ele>
        <time>2013-08-29T09:25:05Z</time>
      </trkpt>
      <trkpt lat="42.94981" lon="-0.05263">
        <ele>634.61</ele>
        <time>2013-08-29T09:25:07Z</time>
      </trkpt>
      <trkpt lat="42.94983" lon="-0.05264">
        <ele>633.65</ele>
        <time>2013-08-29T09:25:09Z</time>
      </trkpt>
      <trkpt lat="42.95002" lon="-0.05263">
        <ele>629.32</ele>
        <time>2013-08-29T09:25:18Z</time>
      </trkpt>
      <trkpt lat="42.95002" lon="-0.05262">
        <ele>628.36</ele>
        <time>2013-08-29T09:25:20Z</time>
      </trkpt>
      <trkpt lat="42.94999" lon="-0.05261">
        <ele>627.4</ele>
        <time>2013-08-29T09:25:22Z</time>
      </trkpt>
      <trkpt lat="42.95" lon="-0.05264">
        <ele>623.55</ele>
        <time>2013-08-29T09:25:30Z</time>
      </trkpt>
      <trkpt lat="42.95004" lon="-0.05265">
        <ele>622.11</ele>
        <time>2013-08-29T09:25:33Z</time>
      </trkpt>
      <trkpt lat="42.95004" lon="-0.0526">
        <ele>622.59</ele>
        <time>2013-08-29T09:25:47Z</time>
      </trkpt>
      <trkpt lat="42.95005" lon="-0.05261">
        <ele>621.63</ele>
        <time>2013-08-29T09:26:07Z</time>
      </trkpt>
      <trkpt lat="42.95009" lon="-0.05264">
        <ele>622.11</ele>
        <time>2013-08-29T09:26:18Z</time>
      </trkpt>
      <trkpt lat="42.9501" lon="-0.05268">
        <ele>622.11</ele>
        <time>2013-08-29T09:26:38Z</time>
      </trkpt>
      <trkpt lat="42.95012" lon="-0.05275">
        <ele>622.59</ele>
        <time>2013-08-29T09:27:03Z</time>
      </trkpt>
      <trkpt lat="42.95014" lon="-0.05276">
        <ele>624.51</ele>
        <time>2013-08-29T09:27:10Z</time>
      </trkpt>
      <trkpt lat="42.95015" lon="-0.05274">
        <ele>625.47</ele>
        <time>2013-08-29T09:27:21Z</time>
      </trkpt>
      <trkpt lat="42.95013" lon="-0.05276">
        <ele>624.99</ele>
        <time>2013-08-29T09:27:22Z</time>
      </trkpt>
      <trkpt lat="42.95006" lon="-0.05288">
        <ele>623.07</ele>
        <time>2013-08-29T09:27:26Z</time>
      </trkpt>
      <trkpt lat="42.95008" lon="-0.05305">
        <ele>621.63</ele>
        <time>2013-08-29T09:27:31Z</time>
      </trkpt>
      <trkpt lat="42.9501" lon="-0.05313">
        <ele>620.67</ele>
        <time>2013-08-29T09:27:33Z</time>
      </trkpt>
      <trkpt lat="42.95027" lon="-0.05338">
        <ele>616.34</ele>
        <time>2013-08-29T09:27:40Z</time>
      </trkpt>
      <trkpt lat="42.95046" lon="-0.05364">
        <ele>617.3</ele>
        <time>2013-08-29T09:27:49Z</time>
      </trkpt>
      <trkpt lat="42.95067" lon="-0.0539">
        <ele>620.67</ele>
        <time>2013-08-29T09:27:59Z</time>
      </trkpt>
      <trkpt lat="42.95092" lon="-0.05408">
        <ele>624.03</ele>
        <time>2013-08-29T09:28:12Z</time>
      </trkpt>
      <trkpt lat="42.95113" lon="-0.05433">
        <ele>626.92</ele>
        <time>2013-08-29T09:28:24Z</time>
      </trkpt>
      <trkpt lat="42.9513" lon="-0.05454">
        <ele>628.84</ele>
        <time>2013-08-29T09:28:34Z</time>
      </trkpt>
      <trkpt lat="42.95131" lon="-0.05457">
        <ele>629.32</ele>
        <time>2013-08-29T09:28:35Z</time>
      </trkpt>
      <trkpt lat="42.95138" lon="-0.05452">
        <ele>630.28</ele>
        <time>2013-08-29T09:28:41Z</time>
      </trkpt>
      <trkpt lat="42.95143" lon="-0.05451">
        <ele>630.76</ele>
        <time>2013-08-29T09:28:45Z</time>
      </trkpt>
      <trkpt lat="42.95164" lon="-0.05443">
        <ele>632.68</ele>
        <time>2013-08-29T09:28:59Z</time>
      </trkpt>
      <trkpt lat="42.952" lon="-0.05444">
        <ele>632.68</ele>
        <time>2013-08-29T09:29:12Z</time>
      </trkpt>
      <trkpt lat="42.95239" lon="-0.05424">
        <ele>632.68</ele>
        <time>2013-08-29T09:29:25Z</time>
      </trkpt>
      <trkpt lat="42.9527" lon="-0.05416">
        <ele>633.17</ele>
        <time>2013-08-29T09:29:35Z</time>
      </trkpt>
      <trkpt lat="42.9528" lon="-0.05405">
        <ele>633.65</ele>
        <time>2013-08-29T09:29:39Z</time>
      </trkpt>
      <trkpt lat="42.95286" lon="-0.054">
        <ele>632.2</ele>
        <time>2013-08-29T09:29:41Z</time>
      </trkpt>
      <trkpt lat="42.95309" lon="-0.05393">
        <ele>624.99</ele>
        <time>2013-08-29T09:29:45Z</time>
      </trkpt>
      <trkpt lat="42.95318" lon="-0.05404">
        <ele>621.63</ele>
        <time>2013-08-29T09:29:48Z</time>
      </trkpt>
      <trkpt lat="42.95322" lon="-0.05416">
        <ele>617.78</ele>
        <time>2013-08-29T09:29:51Z</time>
      </trkpt>
      <trkpt lat="42.95323" lon="-0.0542">
        <ele>616.82</ele>
        <time>2013-08-29T09:29:52Z</time>
      </trkpt>
      <trkpt lat="42.95323" lon="-0.05422">
        <ele>615.86</ele>
        <time>2013-08-29T09:29:53Z</time>
      </trkpt>
      <trkpt lat="42.95329" lon="-0.05433">
        <ele>613.46</ele>
        <time>2013-08-29T09:29:56Z</time>
      </trkpt>
      <trkpt lat="42.95333" lon="-0.05443">
        <ele>611.06</ele>
        <time>2013-08-29T09:29:58Z</time>
      </trkpt>
      <trkpt lat="42.95339" lon="-0.05449">
        <ele>610.09</ele>
        <time>2013-08-29T09:30:00Z</time>
      </trkpt>
      <trkpt lat="42.95346" lon="-0.05458">
        <ele>607.69</ele>
        <time>2013-08-29T09:30:03Z</time>
      </trkpt>
      <trkpt lat="42.95347" lon="-0.0548">
        <ele>603.36</ele>
        <time>2013-08-29T09:30:09Z</time>
      </trkpt>
      <trkpt lat="42.95347" lon="-0.05486">
        <ele>602.4</ele>
        <time>2013-08-29T09:30:11Z</time>
      </trkpt>
      <trkpt lat="42.95348" lon="-0.05491">
        <ele>600.96</ele>
        <time>2013-08-29T09:30:14Z</time>
      </trkpt>
      <trkpt lat="42.95357" lon="-0.05499">
        <ele>599.52</ele>
        <time>2013-08-29T09:30:17Z</time>
      </trkpt>
      <trkpt lat="42.95364" lon="-0.05504">
        <ele>599.04</ele>
        <time>2013-08-29T09:30:19Z</time>
      </trkpt>
      <trkpt lat="42.95371" lon="-0.05508">
        <ele>597.12</ele>
        <time>2013-08-29T09:30:21Z</time>
      </trkpt>
      <trkpt lat="42.95387" lon="-0.05524">
        <ele>592.79</ele>
        <time>2013-08-29T09:30:25Z</time>
      </trkpt>
      <trkpt lat="42.954" lon="-0.05541">
        <ele>587.02</ele>
        <time>2013-08-29T09:30:29Z</time>
      </trkpt>
      <trkpt lat="42.95406" lon="-0.05548">
        <ele>584.14</ele>
        <time>2013-08-29T09:30:31Z</time>
      </trkpt>
      <trkpt lat="42.95412" lon="-0.05555">
        <ele>581.73</ele>
        <time>2013-08-29T09:30:34Z</time>
      </trkpt>
      <trkpt lat="42.95423" lon="-0.05556">
        <ele>575.97</ele>
        <time>2013-08-29T09:30:38Z</time>
      </trkpt>
      <trkpt lat="42.95433" lon="-0.05556">
        <ele>572.12</ele>
        <time>2013-08-29T09:30:41Z</time>
      </trkpt>
      <trkpt lat="42.95436" lon="-0.05555">
        <ele>570.2</ele>
        <time>2013-08-29T09:30:42Z</time>
      </trkpt>
      <trkpt lat="42.95444" lon="-0.05562">
        <ele>567.32</ele>
        <time>2013-08-29T09:30:46Z</time>
      </trkpt>
      <trkpt lat="42.95441" lon="-0.05581">
        <ele>563.47</ele>
        <time>2013-08-29T09:30:52Z</time>
      </trkpt>
      <trkpt lat="42.95441" lon="-0.05585">
        <ele>562.51</ele>
        <time>2013-08-29T09:30:54Z</time>
      </trkpt>
      <trkpt lat="42.95436" lon="-0.05593">
        <ele>561.55</ele>
        <time>2013-08-29T09:30:59Z</time>
      </trkpt>
      <trkpt lat="42.95443" lon="-0.05624">
        <ele>558.66</ele>
        <time>2013-08-29T09:31:06Z</time>
      </trkpt>
      <trkpt lat="42.95447" lon="-0.05631">
        <ele>557.22</ele>
        <time>2013-08-29T09:31:16Z</time>
      </trkpt>
      <trkpt lat="42.95446" lon="-0.05628">
        <ele>557.22</ele>
        <time>2013-08-29T09:31:42Z</time>
      </trkpt>
      <trkpt lat="42.95446" lon="-0.05627">
        <ele>556.74</ele>
        <time>2013-08-29T09:32:07Z</time>
      </trkpt>
      <trkpt lat="42.95447" lon="-0.0564">
        <ele>556.26</ele>
        <time>2013-08-29T09:32:12Z</time>
      </trkpt>
      <trkpt lat="42.95445" lon="-0.05662">
        <ele>555.78</ele>
        <time>2013-08-29T09:32:16Z</time>
      </trkpt>
      <trkpt lat="42.95423" lon="-0.05729">
        <ele>554.34</ele>
        <time>2013-08-29T09:32:30Z</time>
      </trkpt>
      <trkpt lat="42.95422" lon="-0.05735">
        <ele>553.86</ele>
        <time>2013-08-29T09:32:31Z</time>
      </trkpt>
      <trkpt lat="42.95431" lon="-0.05755">
        <ele>552.9</ele>
        <time>2013-08-29T09:32:35Z</time>
      </trkpt>
      <trkpt lat="42.95464" lon="-0.05769">
        <ele>550.01</ele>
        <time>2013-08-29T09:32:40Z</time>
      </trkpt>
      <trkpt lat="42.95496" lon="-0.05805">
        <ele>545.69</ele>
        <time>2013-08-29T09:32:45Z</time>
      </trkpt>
      <trkpt lat="42.95512" lon="-0.05813">
        <ele>545.2</ele>
        <time>2013-08-29T09:32:47Z</time>
      </trkpt>
      <trkpt lat="42.95536" lon="-0.05825">
        <ele>541.84</ele>
        <time>2013-08-29T09:32:50Z</time>
      </trkpt>
      <trkpt lat="42.95548" lon="-0.05842">
        <ele>541.36</ele>
        <time>2013-08-29T09:32:52Z</time>
      </trkpt>
      <trkpt lat="42.95561" lon="-0.05857">
        <ele>540.4</ele>
        <time>2013-08-29T09:32:54Z</time>
      </trkpt>
      <trkpt lat="42.95588" lon="-0.05907">
        <ele>537.03</ele>
        <time>2013-08-29T09:32:59Z</time>
      </trkpt>
      <trkpt lat="42.95589" lon="-0.05951">
        <ele>534.15</ele>
        <time>2013-08-29T09:33:03Z</time>
      </trkpt>
      <trkpt lat="42.95582" lon="-0.06001">
        <ele>533.19</ele>
        <time>2013-08-29T09:33:09Z</time>
      </trkpt>
      <trkpt lat="42.9559" lon="-0.06038">
        <ele>531.75</ele>
        <time>2013-08-29T09:33:13Z</time>
      </trkpt>
      <trkpt lat="42.95586" lon="-0.06083">
        <ele>530.3</ele>
        <time>2013-08-29T09:33:17Z</time>
      </trkpt>
      <trkpt lat="42.95579" lon="-0.06157">
        <ele>526.46</ele>
        <time>2013-08-29T09:33:23Z</time>
      </trkpt>
      <trkpt lat="42.95555" lon="-0.06201">
        <ele>525.02</ele>
        <time>2013-08-29T09:33:28Z</time>
      </trkpt>
      <trkpt lat="42.95514" lon="-0.06251">
        <ele>524.54</ele>
        <time>2013-08-29T09:33:36Z</time>
      </trkpt>
      <trkpt lat="42.95505" lon="-0.06263">
        <ele>525.5</ele>
        <time>2013-08-29T09:33:38Z</time>
      </trkpt>
      <trkpt lat="42.95478" lon="-0.06296">
        <ele>524.54</ele>
        <time>2013-08-29T09:33:44Z</time>
      </trkpt>
      <trkpt lat="42.95484" lon="-0.06337">
        <ele>522.13</ele>
        <time>2013-08-29T09:33:50Z</time>
      </trkpt>
      <trkpt lat="42.955" lon="-0.06353">
        <ele>519.25</ele>
        <time>2013-08-29T09:33:53Z</time>
      </trkpt>
      <trkpt lat="42.9553" lon="-0.06367">
        <ele>516.37</ele>
        <time>2013-08-29T09:34:00Z</time>
      </trkpt>
      <trkpt lat="42.95536" lon="-0.06369">
        <ele>515.88</ele>
        <time>2013-08-29T09:34:01Z</time>
      </trkpt>
      <trkpt lat="42.95555" lon="-0.06376">
        <ele>514.92</ele>
        <time>2013-08-29T09:34:04Z</time>
      </trkpt>
      <trkpt lat="42.95606" lon="-0.0641">
        <ele>511.08</ele>
        <time>2013-08-29T09:34:11Z</time>
      </trkpt>
      <trkpt lat="42.95623" lon="-0.06421">
        <ele>510.12</ele>
        <time>2013-08-29T09:34:13Z</time>
      </trkpt>
      <trkpt lat="42.95661" lon="-0.06431">
        <ele>507.23</ele>
        <time>2013-08-29T09:34:17Z</time>
      </trkpt>
      <trkpt lat="42.95691" lon="-0.06431">
        <ele>505.79</ele>
        <time>2013-08-29T09:34:20Z</time>
      </trkpt>
      <trkpt lat="42.95711" lon="-0.0643">
        <ele>504.35</ele>
        <time>2013-08-29T09:34:22Z</time>
      </trkpt>
      <trkpt lat="42.95766" lon="-0.06432">
        <ele>500.98</ele>
        <time>2013-08-29T09:34:28Z</time>
      </trkpt>
      <trkpt lat="42.9579" lon="-0.06422">
        <ele>500.5</ele>
        <time>2013-08-29T09:34:31Z</time>
      </trkpt>
      <trkpt lat="42.95834" lon="-0.06381">
        <ele>498.58</ele>
        <time>2013-08-29T09:34:38Z</time>
      </trkpt>
      <trkpt lat="42.95872" lon="-0.06355">
        <ele>497.62</ele>
        <time>2013-08-29T09:34:45Z</time>
      </trkpt>
      <trkpt lat="42.95873" lon="-0.06353">
        <ele>496.66</ele>
        <time>2013-08-29T09:34:55Z</time>
      </trkpt>
      <trkpt lat="42.95872" lon="-0.06352">
        <ele>495.22</ele>
        <time>2013-08-29T09:35:08Z</time>
      </trkpt>
      <trkpt lat="42.95873" lon="-0.06352">
        <ele>498.58</ele>
        <time>2013-08-29T09:35:11Z</time>
      </trkpt>
      <trkpt lat="42.95874" lon="-0.06353">
        <ele>495.22</ele>
        <time>2013-08-29T09:35:18Z</time>
      </trkpt>
      <trkpt lat="42.95874" lon="-0.06354">
        <ele>498.58</ele>
        <time>2013-08-29T09:35:22Z</time>
      </trkpt>
      <trkpt lat="42.95874" lon="-0.06354">
        <ele>496.18</ele>
        <time>2013-08-29T09:35:24Z</time>
      </trkpt>
      <trkpt lat="42.95875" lon="-0.06355">
        <ele>496.18</ele>
        <time>2013-08-29T09:35:36Z</time>
      </trkpt>
      <trkpt lat="42.95875" lon="-0.06355">
        <ele>495.7</ele>
        <time>2013-08-29T09:35:51Z</time>
      </trkpt>
      <trkpt lat="42.95875" lon="-0.06356">
        <ele>497.14</ele>
        <time>2013-08-29T09:35:57Z</time>
      </trkpt>
      <trkpt lat="42.95875" lon="-0.06356">
        <ele>491.37</ele>
        <time>2013-08-29T09:36:02Z</time>
      </trkpt>
      <trkpt lat="42.95874" lon="-0.06356">
        <ele>496.66</ele>
        <time>2013-08-29T09:36:03Z</time>
      </trkpt>
      <trkpt lat="42.95874" lon="-0.06356">
        <ele>492.33</ele>
        <time>2013-08-29T09:36:07Z</time>
      </trkpt>
      <trkpt lat="42.95874" lon="-0.06356">
        <ele>496.18</ele>
        <time>2013-08-29T09:36:08Z</time>
      </trkpt>
      <trkpt lat="42.95874" lon="-0.06356">
        <ele>492.33</ele>
        <time>2013-08-29T09:36:14Z</time>
      </trkpt>
      <trkpt lat="42.95874" lon="-0.06356">
        <ele>496.18</ele>
        <time>2013-08-29T09:36:15Z</time>
      </trkpt>
      <trkpt lat="42.95874" lon="-0.06357">
        <ele>491.85</ele>
        <time>2013-08-29T09:36:37Z</time>
      </trkpt>
      <trkpt lat="42.95874" lon="-0.06357">
        <ele>495.7</ele>
        <time>2013-08-29T09:36:38Z</time>
      </trkpt>
      <trkpt lat="42.95874" lon="-0.06357">
        <ele>496.66</ele>
        <time>2013-08-29T09:36:40Z</time>
      </trkpt>
      <trkpt lat="42.95874" lon="-0.06357">
        <ele>492.81</ele>
        <time>2013-08-29T09:36:41Z</time>
      </trkpt>
      <trkpt lat="42.95874" lon="-0.06357">
        <ele>492.81</ele>
        <time>2013-08-29T09:36:42Z</time>
      </trkpt>
      <trkpt lat="42.95873" lon="-0.06357">
        <ele>496.66</ele>
        <time>2013-08-29T09:36:58Z</time>
      </trkpt>
      <trkpt lat="42.95873" lon="-0.06357">
        <ele>493.29</ele>
        <time>2013-08-29T09:36:59Z</time>
      </trkpt>
      <trkpt lat="42.95873" lon="-0.06357">
        <ele>496.66</ele>
        <time>2013-08-29T09:37:01Z</time>
      </trkpt>
      <trkpt lat="42.95873" lon="-0.06358">
        <ele>493.77</ele>
        <time>2013-08-29T09:37:07Z</time>
      </trkpt>
    </trkseg>
  </trk>
</gpx>